<?xml version="1.0" encoding="UTF-8" standalone="no" ?>
<gpx xmlns="http://www.topografix.com/GPX/1/1" xmlns:xsi="http://www.w3.org/2001/XMLSchema-instance" xsi:schemaLocation="http://www.topografix.com/GPX/1/1 http://www.topografix.com/GPX/1/1/gpx.xsd" version="1.1" creator="VisuGPX - https://www.visugpx.com">
  <metadata>
    <name>ASLPM marche à Arçais le 11 Mai 2015</name>
    <desc><![CDATA[Marche à Arçais le 11 Mai 2015]]></desc>
  </metadata>
  <trk>
    <name><![CDATA[Marche Arçais]]></name>
    <trkseg>
      <trkpt lat="46.29867" lon="-0.69524">
        <ele>3.2</ele>
        <time>2015-05-11T07:12:43.000Z</time>
      </trkpt>
      <trkpt lat="46.29867" lon="-0.69513">
        <ele>3.2</ele>
        <time>2015-05-11T07:12:50.000Z</time>
      </trkpt>
      <trkpt lat="46.29867" lon="-0.69506">
        <ele>3.2</ele>
        <time>2015-05-11T07:12:57.000Z</time>
      </trkpt>
      <trkpt lat="46.29869" lon="-0.69492">
        <ele>3.4</ele>
        <time>2015-05-11T07:13:06.000Z</time>
      </trkpt>
      <trkpt lat="46.29868" lon="-0.69485">
        <ele>3.5</ele>
        <time>2015-05-11T07:13:10.000Z</time>
      </trkpt>
      <trkpt lat="46.29867" lon="-0.69484">
        <ele>3.5</ele>
        <time>2015-05-11T07:13:15.000Z</time>
      </trkpt>
      <trkpt lat="46.29867" lon="-0.69481">
        <ele>3.6</ele>
        <time>2015-05-11T07:13:21.000Z</time>
      </trkpt>
      <trkpt lat="46.29867" lon="-0.6948">
        <ele>3.6</ele>
        <time>2015-05-11T07:13:22.000Z</time>
      </trkpt>
      <trkpt lat="46.29862" lon="-0.69468">
        <ele>3.8</ele>
        <time>2015-05-11T07:13:30.000Z</time>
      </trkpt>
      <trkpt lat="46.29855" lon="-0.6945">
        <ele>3.2</ele>
        <time>2015-05-11T07:13:42.000Z</time>
      </trkpt>
      <trkpt lat="46.29848" lon="-0.69439">
        <ele>3.1</ele>
        <time>2015-05-11T07:13:51.000Z</time>
      </trkpt>
      <trkpt lat="46.29847" lon="-0.69438">
        <ele>3.1</ele>
        <time>2015-05-11T07:13:53.000Z</time>
      </trkpt>
      <trkpt lat="46.29845" lon="-0.69438">
        <ele>3.1</ele>
        <time>2015-05-11T07:14:02.000Z</time>
      </trkpt>
      <trkpt lat="46.29842" lon="-0.69438">
        <ele>3.2</ele>
        <time>2015-05-11T07:14:12.000Z</time>
      </trkpt>
      <trkpt lat="46.29832" lon="-0.69441">
        <ele>3.1</ele>
        <time>2015-05-11T07:14:21.000Z</time>
      </trkpt>
      <trkpt lat="46.29819" lon="-0.69443">
        <ele>3</ele>
        <time>2015-05-11T07:14:32.000Z</time>
      </trkpt>
      <trkpt lat="46.29808" lon="-0.6945">
        <ele>3</ele>
        <time>2015-05-11T07:14:41.000Z</time>
      </trkpt>
      <trkpt lat="46.298" lon="-0.69457">
        <ele>3</ele>
        <time>2015-05-11T07:14:49.000Z</time>
      </trkpt>
      <trkpt lat="46.29791" lon="-0.69464">
        <ele>3</ele>
        <time>2015-05-11T07:14:57.000Z</time>
      </trkpt>
      <trkpt lat="46.29781" lon="-0.69474">
        <ele>3</ele>
        <time>2015-05-11T07:15:06.000Z</time>
      </trkpt>
      <trkpt lat="46.29769" lon="-0.69486">
        <ele>2.7</ele>
        <time>2015-05-11T07:15:17.000Z</time>
      </trkpt>
      <trkpt lat="46.29756" lon="-0.69501">
        <ele>2.8</ele>
        <time>2015-05-11T07:15:29.000Z</time>
      </trkpt>
      <trkpt lat="46.2975" lon="-0.69511">
        <ele>3</ele>
        <time>2015-05-11T07:15:36.000Z</time>
      </trkpt>
      <trkpt lat="46.29742" lon="-0.69531">
        <ele>3</ele>
        <time>2015-05-11T07:15:48.000Z</time>
      </trkpt>
      <trkpt lat="46.29736" lon="-0.69552">
        <ele>3</ele>
        <time>2015-05-11T07:16:00.000Z</time>
      </trkpt>
      <trkpt lat="46.29734" lon="-0.69568">
        <ele>3</ele>
        <time>2015-05-11T07:16:08.000Z</time>
      </trkpt>
      <trkpt lat="46.29734" lon="-0.69585">
        <ele>3</ele>
        <time>2015-05-11T07:16:17.000Z</time>
      </trkpt>
      <trkpt lat="46.29735" lon="-0.69587">
        <ele>3</ele>
        <time>2015-05-11T07:16:18.000Z</time>
      </trkpt>
      <trkpt lat="46.29738" lon="-0.69594">
        <ele>3</ele>
        <time>2015-05-11T07:16:23.000Z</time>
      </trkpt>
      <trkpt lat="46.29736" lon="-0.69612">
        <ele>3</ele>
        <time>2015-05-11T07:16:33.000Z</time>
      </trkpt>
      <trkpt lat="46.29731" lon="-0.69626">
        <ele>3</ele>
        <time>2015-05-11T07:16:41.000Z</time>
      </trkpt>
      <trkpt lat="46.29725" lon="-0.6964">
        <ele>3</ele>
        <time>2015-05-11T07:16:50.000Z</time>
      </trkpt>
      <trkpt lat="46.29715" lon="-0.69655">
        <ele>3</ele>
        <time>2015-05-11T07:17:01.000Z</time>
      </trkpt>
      <trkpt lat="46.29706" lon="-0.69653">
        <ele>3</ele>
        <time>2015-05-11T07:17:09.000Z</time>
      </trkpt>
      <trkpt lat="46.29704" lon="-0.69653">
        <ele>3</ele>
        <time>2015-05-11T07:17:10.000Z</time>
      </trkpt>
      <trkpt lat="46.29701" lon="-0.69657">
        <ele>3</ele>
        <time>2015-05-11T07:17:14.000Z</time>
      </trkpt>
      <trkpt lat="46.29695" lon="-0.69672">
        <ele>3</ele>
        <time>2015-05-11T07:17:23.000Z</time>
      </trkpt>
      <trkpt lat="46.29688" lon="-0.69687">
        <ele>3</ele>
        <time>2015-05-11T07:17:32.000Z</time>
      </trkpt>
      <trkpt lat="46.2968" lon="-0.69702">
        <ele>3</ele>
        <time>2015-05-11T07:17:42.000Z</time>
      </trkpt>
      <trkpt lat="46.29672" lon="-0.69719">
        <ele>3</ele>
        <time>2015-05-11T07:17:52.000Z</time>
      </trkpt>
      <trkpt lat="46.29664" lon="-0.69734">
        <ele>3</ele>
        <time>2015-05-11T07:18:02.000Z</time>
      </trkpt>
      <trkpt lat="46.29655" lon="-0.69747">
        <ele>3</ele>
        <time>2015-05-11T07:18:11.000Z</time>
      </trkpt>
      <trkpt lat="46.29649" lon="-0.69753">
        <ele>3</ele>
        <time>2015-05-11T07:18:17.000Z</time>
      </trkpt>
      <trkpt lat="46.29641" lon="-0.69763">
        <ele>3</ele>
        <time>2015-05-11T07:18:26.000Z</time>
      </trkpt>
      <trkpt lat="46.29633" lon="-0.69769">
        <ele>3</ele>
        <time>2015-05-11T07:18:33.000Z</time>
      </trkpt>
      <trkpt lat="46.29621" lon="-0.69771">
        <ele>3</ele>
        <time>2015-05-11T07:18:42.000Z</time>
      </trkpt>
      <trkpt lat="46.29611" lon="-0.69769">
        <ele>3</ele>
        <time>2015-05-11T07:18:49.000Z</time>
      </trkpt>
      <trkpt lat="46.296" lon="-0.69767">
        <ele>3</ele>
        <time>2015-05-11T07:18:58.000Z</time>
      </trkpt>
      <trkpt lat="46.29598" lon="-0.69766">
        <ele>3</ele>
        <time>2015-05-11T07:18:59.000Z</time>
      </trkpt>
      <trkpt lat="46.29587" lon="-0.69769">
        <ele>3</ele>
        <time>2015-05-11T07:19:08.000Z</time>
      </trkpt>
      <trkpt lat="46.29575" lon="-0.69781">
        <ele>3</ele>
        <time>2015-05-11T07:19:18.000Z</time>
      </trkpt>
      <trkpt lat="46.29554" lon="-0.69809">
        <ele>3</ele>
        <time>2015-05-11T07:19:38.000Z</time>
      </trkpt>
      <trkpt lat="46.29544" lon="-0.69821">
        <ele>3</ele>
        <time>2015-05-11T07:19:47.000Z</time>
      </trkpt>
      <trkpt lat="46.29533" lon="-0.69833">
        <ele>3</ele>
        <time>2015-05-11T07:19:57.000Z</time>
      </trkpt>
      <trkpt lat="46.29523" lon="-0.69843">
        <ele>3.1</ele>
        <time>2015-05-11T07:20:06.000Z</time>
      </trkpt>
      <trkpt lat="46.29517" lon="-0.69849">
        <ele>3.2</ele>
        <time>2015-05-11T07:20:12.000Z</time>
      </trkpt>
      <trkpt lat="46.29509" lon="-0.69856">
        <ele>3.6</ele>
        <time>2015-05-11T07:20:19.000Z</time>
      </trkpt>
      <trkpt lat="46.29489" lon="-0.69873">
        <ele>3.1</ele>
        <time>2015-05-11T07:20:35.000Z</time>
      </trkpt>
      <trkpt lat="46.29476" lon="-0.69885">
        <ele>2.9</ele>
        <time>2015-05-11T07:20:45.000Z</time>
      </trkpt>
      <trkpt lat="46.29466" lon="-0.69892">
        <ele>3</ele>
        <time>2015-05-11T07:20:53.000Z</time>
      </trkpt>
      <trkpt lat="46.29459" lon="-0.69897">
        <ele>3</ele>
        <time>2015-05-11T07:20:59.000Z</time>
      </trkpt>
      <trkpt lat="46.29457" lon="-0.69898">
        <ele>3</ele>
        <time>2015-05-11T07:21:00.000Z</time>
      </trkpt>
      <trkpt lat="46.2945" lon="-0.69906">
        <ele>3</ele>
        <time>2015-05-11T07:21:07.000Z</time>
      </trkpt>
      <trkpt lat="46.29443" lon="-0.69917">
        <ele>3</ele>
        <time>2015-05-11T07:21:14.000Z</time>
      </trkpt>
      <trkpt lat="46.29439" lon="-0.69928">
        <ele>3</ele>
        <time>2015-05-11T07:21:21.000Z</time>
      </trkpt>
      <trkpt lat="46.29434" lon="-0.69943">
        <ele>3</ele>
        <time>2015-05-11T07:21:29.000Z</time>
      </trkpt>
      <trkpt lat="46.2943" lon="-0.6996">
        <ele>2.7</ele>
        <time>2015-05-11T07:21:38.000Z</time>
      </trkpt>
      <trkpt lat="46.29428" lon="-0.69965">
        <ele>2.7</ele>
        <time>2015-05-11T07:21:41.000Z</time>
      </trkpt>
      <trkpt lat="46.29422" lon="-0.69978">
        <ele>2.8</ele>
        <time>2015-05-11T07:21:49.000Z</time>
      </trkpt>
      <trkpt lat="46.2941" lon="-0.69993">
        <ele>3</ele>
        <time>2015-05-11T07:22:00.000Z</time>
      </trkpt>
      <trkpt lat="46.29402" lon="-0.70004">
        <ele>3</ele>
        <time>2015-05-11T07:22:08.000Z</time>
      </trkpt>
      <trkpt lat="46.29391" lon="-0.70018">
        <ele>3</ele>
        <time>2015-05-11T07:22:18.000Z</time>
      </trkpt>
      <trkpt lat="46.2938" lon="-0.70033">
        <ele>2.7</ele>
        <time>2015-05-11T07:22:29.000Z</time>
      </trkpt>
      <trkpt lat="46.29368" lon="-0.70048">
        <ele>2.8</ele>
        <time>2015-05-11T07:22:40.000Z</time>
      </trkpt>
      <trkpt lat="46.29358" lon="-0.7006">
        <ele>2.9</ele>
        <time>2015-05-11T07:22:49.000Z</time>
      </trkpt>
      <trkpt lat="46.29349" lon="-0.70072">
        <ele>2.8</ele>
        <time>2015-05-11T07:22:58.000Z</time>
      </trkpt>
      <trkpt lat="46.29342" lon="-0.70079">
        <ele>2.9</ele>
        <time>2015-05-11T07:23:04.000Z</time>
      </trkpt>
      <trkpt lat="46.29338" lon="-0.70082">
        <ele>2.9</ele>
        <time>2015-05-11T07:23:07.000Z</time>
      </trkpt>
      <trkpt lat="46.29332" lon="-0.70086">
        <ele>2.9</ele>
        <time>2015-05-11T07:23:14.000Z</time>
      </trkpt>
      <trkpt lat="46.29327" lon="-0.7009">
        <ele>2.8</ele>
        <time>2015-05-11T07:23:19.000Z</time>
      </trkpt>
      <trkpt lat="46.29326" lon="-0.70091">
        <ele>2.8</ele>
        <time>2015-05-11T07:23:20.000Z</time>
      </trkpt>
      <trkpt lat="46.29318" lon="-0.70098">
        <ele>2.8</ele>
        <time>2015-05-11T07:23:27.000Z</time>
      </trkpt>
      <trkpt lat="46.29306" lon="-0.70109">
        <ele>3</ele>
        <time>2015-05-11T07:23:37.000Z</time>
      </trkpt>
      <trkpt lat="46.29298" lon="-0.70117">
        <ele>3</ele>
        <time>2015-05-11T07:23:44.000Z</time>
      </trkpt>
      <trkpt lat="46.2929" lon="-0.70125">
        <ele>3</ele>
        <time>2015-05-11T07:23:51.000Z</time>
      </trkpt>
      <trkpt lat="46.29282" lon="-0.70133">
        <ele>3</ele>
        <time>2015-05-11T07:23:58.000Z</time>
      </trkpt>
      <trkpt lat="46.29274" lon="-0.70143">
        <ele>2.9</ele>
        <time>2015-05-11T07:24:06.000Z</time>
      </trkpt>
      <trkpt lat="46.29266" lon="-0.70152">
        <ele>2.8</ele>
        <time>2015-05-11T07:24:13.000Z</time>
      </trkpt>
      <trkpt lat="46.29258" lon="-0.70158">
        <ele>2.8</ele>
        <time>2015-05-11T07:24:19.000Z</time>
      </trkpt>
      <trkpt lat="46.29251" lon="-0.70163">
        <ele>2.9</ele>
        <time>2015-05-11T07:24:26.000Z</time>
      </trkpt>
      <trkpt lat="46.29249" lon="-0.70164">
        <ele>2.9</ele>
        <time>2015-05-11T07:24:27.000Z</time>
      </trkpt>
      <trkpt lat="46.29241" lon="-0.7017">
        <ele>2.7</ele>
        <time>2015-05-11T07:24:34.000Z</time>
      </trkpt>
      <trkpt lat="46.29234" lon="-0.70176">
        <ele>2.6</ele>
        <time>2015-05-11T07:24:40.000Z</time>
      </trkpt>
      <trkpt lat="46.29226" lon="-0.7018">
        <ele>2.6</ele>
        <time>2015-05-11T07:24:47.000Z</time>
      </trkpt>
      <trkpt lat="46.29225" lon="-0.70181">
        <ele>2.6</ele>
        <time>2015-05-11T07:24:48.000Z</time>
      </trkpt>
      <trkpt lat="46.29218" lon="-0.70187">
        <ele>2.6</ele>
        <time>2015-05-11T07:24:54.000Z</time>
      </trkpt>
      <trkpt lat="46.29211" lon="-0.70192">
        <ele>2.6</ele>
        <time>2015-05-11T07:25:00.000Z</time>
      </trkpt>
      <trkpt lat="46.29202" lon="-0.70201">
        <ele>2.5</ele>
        <time>2015-05-11T07:25:07.000Z</time>
      </trkpt>
      <trkpt lat="46.29201" lon="-0.70203">
        <ele>2.5</ele>
        <time>2015-05-11T07:25:08.000Z</time>
      </trkpt>
      <trkpt lat="46.29195" lon="-0.70212">
        <ele>2.6</ele>
        <time>2015-05-11T07:25:13.000Z</time>
      </trkpt>
      <trkpt lat="46.29184" lon="-0.70227">
        <ele>2.7</ele>
        <time>2015-05-11T07:25:22.000Z</time>
      </trkpt>
      <trkpt lat="46.29178" lon="-0.70235">
        <ele>2.7</ele>
        <time>2015-05-11T07:25:27.000Z</time>
      </trkpt>
      <trkpt lat="46.29169" lon="-0.70248">
        <ele>2.9</ele>
        <time>2015-05-11T07:25:36.000Z</time>
      </trkpt>
      <trkpt lat="46.2916" lon="-0.70256">
        <ele>3</ele>
        <time>2015-05-11T07:25:43.000Z</time>
      </trkpt>
      <trkpt lat="46.29149" lon="-0.70266">
        <ele>3</ele>
        <time>2015-05-11T07:25:52.000Z</time>
      </trkpt>
      <trkpt lat="46.29139" lon="-0.70274">
        <ele>3</ele>
        <time>2015-05-11T07:26:00.000Z</time>
      </trkpt>
      <trkpt lat="46.29131" lon="-0.70281">
        <ele>2.9</ele>
        <time>2015-05-11T07:26:07.000Z</time>
      </trkpt>
      <trkpt lat="46.29121" lon="-0.70291">
        <ele>2.8</ele>
        <time>2015-05-11T07:26:16.000Z</time>
      </trkpt>
      <trkpt lat="46.29111" lon="-0.703">
        <ele>3</ele>
        <time>2015-05-11T07:26:24.000Z</time>
      </trkpt>
      <trkpt lat="46.29104" lon="-0.70306">
        <ele>3</ele>
        <time>2015-05-11T07:26:30.000Z</time>
      </trkpt>
      <trkpt lat="46.29103" lon="-0.70307">
        <ele>3</ele>
        <time>2015-05-11T07:26:31.000Z</time>
      </trkpt>
      <trkpt lat="46.29092" lon="-0.70316">
        <ele>2.9</ele>
        <time>2015-05-11T07:26:40.000Z</time>
      </trkpt>
      <trkpt lat="46.29083" lon="-0.70323">
        <ele>3</ele>
        <time>2015-05-11T07:26:47.000Z</time>
      </trkpt>
      <trkpt lat="46.29074" lon="-0.70331">
        <ele>3</ele>
        <time>2015-05-11T07:26:55.000Z</time>
      </trkpt>
      <trkpt lat="46.2907" lon="-0.70338">
        <ele>2.9</ele>
        <time>2015-05-11T07:26:59.000Z</time>
      </trkpt>
      <trkpt lat="46.29069" lon="-0.70354">
        <ele>2.6</ele>
        <time>2015-05-11T07:27:07.000Z</time>
      </trkpt>
      <trkpt lat="46.29068" lon="-0.70368">
        <ele>2.6</ele>
        <time>2015-05-11T07:27:13.000Z</time>
      </trkpt>
      <trkpt lat="46.29063" lon="-0.70383">
        <ele>2.7</ele>
        <time>2015-05-11T07:27:21.000Z</time>
      </trkpt>
      <trkpt lat="46.29062" lon="-0.70385">
        <ele>2.8</ele>
        <time>2015-05-11T07:27:22.000Z</time>
      </trkpt>
      <trkpt lat="46.2906" lon="-0.7039">
        <ele>2.8</ele>
        <time>2015-05-11T07:27:25.000Z</time>
      </trkpt>
      <trkpt lat="46.29055" lon="-0.704">
        <ele>3</ele>
        <time>2015-05-11T07:27:31.000Z</time>
      </trkpt>
      <trkpt lat="46.2905" lon="-0.70412">
        <ele>2.8</ele>
        <time>2015-05-11T07:27:38.000Z</time>
      </trkpt>
      <trkpt lat="46.29046" lon="-0.70424">
        <ele>2.6</ele>
        <time>2015-05-11T07:27:44.000Z</time>
      </trkpt>
      <trkpt lat="46.29043" lon="-0.70434">
        <ele>2.5</ele>
        <time>2015-05-11T07:27:49.000Z</time>
      </trkpt>
      <trkpt lat="46.2904" lon="-0.70447">
        <ele>2.5</ele>
        <time>2015-05-11T07:27:56.000Z</time>
      </trkpt>
      <trkpt lat="46.2904" lon="-0.7045">
        <ele>2.5</ele>
        <time>2015-05-11T07:27:57.000Z</time>
      </trkpt>
      <trkpt lat="46.29039" lon="-0.70456">
        <ele>2.4</ele>
        <time>2015-05-11T07:28:00.000Z</time>
      </trkpt>
      <trkpt lat="46.29035" lon="-0.70466">
        <ele>2.2</ele>
        <time>2015-05-11T07:28:05.000Z</time>
      </trkpt>
      <trkpt lat="46.29032" lon="-0.70481">
        <ele>2</ele>
        <time>2015-05-11T07:28:13.000Z</time>
      </trkpt>
      <trkpt lat="46.29034" lon="-0.70498">
        <ele>2</ele>
        <time>2015-05-11T07:28:21.000Z</time>
      </trkpt>
      <trkpt lat="46.29044" lon="-0.70521">
        <ele>2.4</ele>
        <time>2015-05-11T07:28:34.000Z</time>
      </trkpt>
      <trkpt lat="46.29054" lon="-0.70546">
        <ele>2.3</ele>
        <time>2015-05-11T07:28:47.000Z</time>
      </trkpt>
      <trkpt lat="46.29062" lon="-0.70565">
        <ele>2.2</ele>
        <time>2015-05-11T07:28:58.000Z</time>
      </trkpt>
      <trkpt lat="46.29068" lon="-0.70573">
        <ele>2.4</ele>
        <time>2015-05-11T07:29:04.000Z</time>
      </trkpt>
      <trkpt lat="46.29074" lon="-0.70582">
        <ele>2.7</ele>
        <time>2015-05-11T07:29:10.000Z</time>
      </trkpt>
      <trkpt lat="46.29077" lon="-0.70586">
        <ele>2.7</ele>
        <time>2015-05-11T07:29:13.000Z</time>
      </trkpt>
      <trkpt lat="46.29082" lon="-0.70598">
        <ele>2.4</ele>
        <time>2015-05-11T07:29:21.000Z</time>
      </trkpt>
      <trkpt lat="46.2909" lon="-0.70615">
        <ele>2.2</ele>
        <time>2015-05-11T07:29:33.000Z</time>
      </trkpt>
      <trkpt lat="46.29094" lon="-0.70621">
        <ele>2.4</ele>
        <time>2015-05-11T07:29:37.000Z</time>
      </trkpt>
      <trkpt lat="46.291" lon="-0.7063">
        <ele>2.6</ele>
        <time>2015-05-11T07:29:44.000Z</time>
      </trkpt>
      <trkpt lat="46.29101" lon="-0.70632">
        <ele>2.6</ele>
        <time>2015-05-11T07:29:45.000Z</time>
      </trkpt>
      <trkpt lat="46.29103" lon="-0.70635">
        <ele>2.7</ele>
        <time>2015-05-11T07:29:47.000Z</time>
      </trkpt>
      <trkpt lat="46.29108" lon="-0.70647">
        <ele>2.6</ele>
        <time>2015-05-11T07:29:54.000Z</time>
      </trkpt>
      <trkpt lat="46.29111" lon="-0.70653">
        <ele>2.5</ele>
        <time>2015-05-11T07:29:58.000Z</time>
      </trkpt>
      <trkpt lat="46.29119" lon="-0.70663">
        <ele>2.4</ele>
        <time>2015-05-11T07:30:05.000Z</time>
      </trkpt>
      <trkpt lat="46.29125" lon="-0.70674">
        <ele>2.5</ele>
        <time>2015-05-11T07:30:11.000Z</time>
      </trkpt>
      <trkpt lat="46.29137" lon="-0.70691">
        <ele>2.9</ele>
        <time>2015-05-11T07:30:21.000Z</time>
      </trkpt>
      <trkpt lat="46.2915" lon="-0.70709">
        <ele>2.7</ele>
        <time>2015-05-11T07:30:32.000Z</time>
      </trkpt>
      <trkpt lat="46.2916" lon="-0.70725">
        <ele>2.7</ele>
        <time>2015-05-11T07:30:42.000Z</time>
      </trkpt>
      <trkpt lat="46.2917" lon="-0.70747">
        <ele>2.2</ele>
        <time>2015-05-11T07:30:54.000Z</time>
      </trkpt>
      <trkpt lat="46.29181" lon="-0.70765">
        <ele>2.5</ele>
        <time>2015-05-11T07:31:05.000Z</time>
      </trkpt>
      <trkpt lat="46.29193" lon="-0.70785">
        <ele>2.7</ele>
        <time>2015-05-11T07:31:18.000Z</time>
      </trkpt>
      <trkpt lat="46.29205" lon="-0.70805">
        <ele>2.4</ele>
        <time>2015-05-11T07:31:30.000Z</time>
      </trkpt>
      <trkpt lat="46.29217" lon="-0.70825">
        <ele>2.3</ele>
        <time>2015-05-11T07:31:43.000Z</time>
      </trkpt>
      <trkpt lat="46.29227" lon="-0.70842">
        <ele>2.2</ele>
        <time>2015-05-11T07:31:54.000Z</time>
      </trkpt>
      <trkpt lat="46.29237" lon="-0.70858">
        <ele>2.5</ele>
        <time>2015-05-11T07:32:05.000Z</time>
      </trkpt>
      <trkpt lat="46.29239" lon="-0.70861">
        <ele>2.6</ele>
        <time>2015-05-11T07:32:07.000Z</time>
      </trkpt>
      <trkpt lat="46.29245" lon="-0.70871">
        <ele>2.8</ele>
        <time>2015-05-11T07:32:14.000Z</time>
      </trkpt>
      <trkpt lat="46.29246" lon="-0.70873">
        <ele>2.8</ele>
        <time>2015-05-11T07:32:15.000Z</time>
      </trkpt>
      <trkpt lat="46.29251" lon="-0.70882">
        <ele>3</ele>
        <time>2015-05-11T07:32:21.000Z</time>
      </trkpt>
      <trkpt lat="46.2926" lon="-0.70895">
        <ele>3</ele>
        <time>2015-05-11T07:32:30.000Z</time>
      </trkpt>
      <trkpt lat="46.29269" lon="-0.70909">
        <ele>3</ele>
        <time>2015-05-11T07:32:39.000Z</time>
      </trkpt>
      <trkpt lat="46.29275" lon="-0.7092">
        <ele>2.9</ele>
        <time>2015-05-11T07:32:46.000Z</time>
      </trkpt>
      <trkpt lat="46.29283" lon="-0.70937">
        <ele>2.4</ele>
        <time>2015-05-11T07:32:56.000Z</time>
      </trkpt>
      <trkpt lat="46.2929" lon="-0.70947">
        <ele>2.4</ele>
        <time>2015-05-11T07:33:03.000Z</time>
      </trkpt>
      <trkpt lat="46.29301" lon="-0.70961">
        <ele>2.3</ele>
        <time>2015-05-11T07:33:13.000Z</time>
      </trkpt>
      <trkpt lat="46.29311" lon="-0.70973">
        <ele>2.2</ele>
        <time>2015-05-11T07:33:22.000Z</time>
      </trkpt>
      <trkpt lat="46.29316" lon="-0.7099">
        <ele>2.8</ele>
        <time>2015-05-11T07:33:31.000Z</time>
      </trkpt>
      <trkpt lat="46.29319" lon="-0.7101">
        <ele>3</ele>
        <time>2015-05-11T07:33:41.000Z</time>
      </trkpt>
      <trkpt lat="46.29325" lon="-0.71026">
        <ele>3</ele>
        <time>2015-05-11T07:33:50.000Z</time>
      </trkpt>
      <trkpt lat="46.29333" lon="-0.71042">
        <ele>3</ele>
        <time>2015-05-11T07:34:00.000Z</time>
      </trkpt>
      <trkpt lat="46.29339" lon="-0.71056">
        <ele>2.8</ele>
        <time>2015-05-11T07:34:08.000Z</time>
      </trkpt>
      <trkpt lat="46.29344" lon="-0.71073">
        <ele>2.9</ele>
        <time>2015-05-11T07:34:17.000Z</time>
      </trkpt>
      <trkpt lat="46.29345" lon="-0.71077">
        <ele>2.9</ele>
        <time>2015-05-11T07:34:20.000Z</time>
      </trkpt>
      <trkpt lat="46.29352" lon="-0.71086">
        <ele>3</ele>
        <time>2015-05-11T07:34:27.000Z</time>
      </trkpt>
      <trkpt lat="46.29354" lon="-0.71089">
        <ele>3</ele>
        <time>2015-05-11T07:34:30.000Z</time>
      </trkpt>
      <trkpt lat="46.29361" lon="-0.71096">
        <ele>3</ele>
        <time>2015-05-11T07:34:37.000Z</time>
      </trkpt>
      <trkpt lat="46.29365" lon="-0.71101">
        <ele>3</ele>
        <time>2015-05-11T07:34:43.000Z</time>
      </trkpt>
      <trkpt lat="46.29366" lon="-0.71101">
        <ele>3</ele>
        <time>2015-05-11T07:34:44.000Z</time>
      </trkpt>
      <trkpt lat="46.29369" lon="-0.71104">
        <ele>3</ele>
        <time>2015-05-11T07:34:47.000Z</time>
      </trkpt>
      <trkpt lat="46.29378" lon="-0.71114">
        <ele>3</ele>
        <time>2015-05-11T07:34:54.000Z</time>
      </trkpt>
      <trkpt lat="46.29379" lon="-0.71115">
        <ele>3</ele>
        <time>2015-05-11T07:34:55.000Z</time>
      </trkpt>
      <trkpt lat="46.29387" lon="-0.71119">
        <ele>3</ele>
        <time>2015-05-11T07:35:00.000Z</time>
      </trkpt>
      <trkpt lat="46.29388" lon="-0.7112">
        <ele>3</ele>
        <time>2015-05-11T07:35:01.000Z</time>
      </trkpt>
      <trkpt lat="46.29393" lon="-0.71127">
        <ele>3</ele>
        <time>2015-05-11T07:35:06.000Z</time>
      </trkpt>
      <trkpt lat="46.29401" lon="-0.71134">
        <ele>3</ele>
        <time>2015-05-11T07:35:12.000Z</time>
      </trkpt>
      <trkpt lat="46.29402" lon="-0.71135">
        <ele>3</ele>
        <time>2015-05-11T07:35:13.000Z</time>
      </trkpt>
      <trkpt lat="46.29408" lon="-0.7114">
        <ele>3</ele>
        <time>2015-05-11T07:35:17.000Z</time>
      </trkpt>
      <trkpt lat="46.29418" lon="-0.71153">
        <ele>3</ele>
        <time>2015-05-11T07:35:26.000Z</time>
      </trkpt>
      <trkpt lat="46.29427" lon="-0.7117">
        <ele>2.6</ele>
        <time>2015-05-11T07:35:36.000Z</time>
      </trkpt>
      <trkpt lat="46.29435" lon="-0.71181">
        <ele>2.2</ele>
        <time>2015-05-11T07:35:43.000Z</time>
      </trkpt>
      <trkpt lat="46.29443" lon="-0.71191">
        <ele>2</ele>
        <time>2015-05-11T07:35:51.000Z</time>
      </trkpt>
      <trkpt lat="46.29447" lon="-0.71195">
        <ele>2</ele>
        <time>2015-05-11T07:35:54.000Z</time>
      </trkpt>
      <trkpt lat="46.29456" lon="-0.71208">
        <ele>2.5</ele>
        <time>2015-05-11T07:36:03.000Z</time>
      </trkpt>
      <trkpt lat="46.29462" lon="-0.71217">
        <ele>2.8</ele>
        <time>2015-05-11T07:36:09.000Z</time>
      </trkpt>
      <trkpt lat="46.29468" lon="-0.71224">
        <ele>3</ele>
        <time>2015-05-11T07:36:14.000Z</time>
      </trkpt>
      <trkpt lat="46.2947" lon="-0.71225">
        <ele>3</ele>
        <time>2015-05-11T07:36:15.000Z</time>
      </trkpt>
      <trkpt lat="46.29475" lon="-0.71229">
        <ele>2.9</ele>
        <time>2015-05-11T07:36:19.000Z</time>
      </trkpt>
      <trkpt lat="46.29478" lon="-0.71231">
        <ele>2.8</ele>
        <time>2015-05-11T07:36:21.000Z</time>
      </trkpt>
      <trkpt lat="46.2949" lon="-0.7125">
        <ele>2.4</ele>
        <time>2015-05-11T07:36:33.000Z</time>
      </trkpt>
      <trkpt lat="46.29499" lon="-0.71263">
        <ele>2.5</ele>
        <time>2015-05-11T07:36:42.000Z</time>
      </trkpt>
      <trkpt lat="46.29506" lon="-0.71273">
        <ele>2.6</ele>
        <time>2015-05-11T07:36:49.000Z</time>
      </trkpt>
      <trkpt lat="46.29514" lon="-0.71287">
        <ele>2.5</ele>
        <time>2015-05-11T07:36:58.000Z</time>
      </trkpt>
      <trkpt lat="46.29515" lon="-0.71295">
        <ele>2.5</ele>
        <time>2015-05-11T07:37:02.000Z</time>
      </trkpt>
      <trkpt lat="46.29509" lon="-0.71308">
        <ele>2.7</ele>
        <time>2015-05-11T07:37:11.000Z</time>
      </trkpt>
      <trkpt lat="46.29499" lon="-0.71318">
        <ele>3</ele>
        <time>2015-05-11T07:37:20.000Z</time>
      </trkpt>
      <trkpt lat="46.29491" lon="-0.71333">
        <ele>3</ele>
        <time>2015-05-11T07:37:30.000Z</time>
      </trkpt>
      <trkpt lat="46.29494" lon="-0.71349">
        <ele>3</ele>
        <time>2015-05-11T07:37:38.000Z</time>
      </trkpt>
      <trkpt lat="46.295" lon="-0.71365">
        <ele>2.9</ele>
        <time>2015-05-11T07:37:47.000Z</time>
      </trkpt>
      <trkpt lat="46.29505" lon="-0.71379">
        <ele>2.5</ele>
        <time>2015-05-11T07:37:55.000Z</time>
      </trkpt>
      <trkpt lat="46.2951" lon="-0.71394">
        <ele>2.3</ele>
        <time>2015-05-11T07:38:03.000Z</time>
      </trkpt>
      <trkpt lat="46.29518" lon="-0.71412">
        <ele>2.1</ele>
        <time>2015-05-11T07:38:13.000Z</time>
      </trkpt>
      <trkpt lat="46.29519" lon="-0.71414">
        <ele>2.1</ele>
        <time>2015-05-11T07:38:14.000Z</time>
      </trkpt>
      <trkpt lat="46.29524" lon="-0.71425">
        <ele>2.3</ele>
        <time>2015-05-11T07:38:21.000Z</time>
      </trkpt>
      <trkpt lat="46.29531" lon="-0.71439">
        <ele>2.8</ele>
        <time>2015-05-11T07:38:31.000Z</time>
      </trkpt>
      <trkpt lat="46.29538" lon="-0.71446">
        <ele>3</ele>
        <time>2015-05-11T07:38:37.000Z</time>
      </trkpt>
      <trkpt lat="46.29538" lon="-0.71449">
        <ele>3</ele>
        <time>2015-05-11T07:38:39.000Z</time>
      </trkpt>
      <trkpt lat="46.29541" lon="-0.71456">
        <ele>3</ele>
        <time>2015-05-11T07:38:45.000Z</time>
      </trkpt>
      <trkpt lat="46.29542" lon="-0.71457">
        <ele>3</ele>
        <time>2015-05-11T07:38:46.000Z</time>
      </trkpt>
      <trkpt lat="46.29545" lon="-0.71464">
        <ele>3</ele>
        <time>2015-05-11T07:38:50.000Z</time>
      </trkpt>
      <trkpt lat="46.29551" lon="-0.71474">
        <ele>3</ele>
        <time>2015-05-11T07:38:57.000Z</time>
      </trkpt>
      <trkpt lat="46.29558" lon="-0.71484">
        <ele>2.9</ele>
        <time>2015-05-11T07:39:03.000Z</time>
      </trkpt>
      <trkpt lat="46.29563" lon="-0.71494">
        <ele>2.7</ele>
        <time>2015-05-11T07:39:09.000Z</time>
      </trkpt>
      <trkpt lat="46.29564" lon="-0.71496">
        <ele>2.7</ele>
        <time>2015-05-11T07:39:10.000Z</time>
      </trkpt>
      <trkpt lat="46.29566" lon="-0.71499">
        <ele>2.6</ele>
        <time>2015-05-11T07:39:12.000Z</time>
      </trkpt>
      <trkpt lat="46.2957" lon="-0.71506">
        <ele>2.5</ele>
        <time>2015-05-11T07:39:16.000Z</time>
      </trkpt>
      <trkpt lat="46.29575" lon="-0.71513">
        <ele>2.5</ele>
        <time>2015-05-11T07:39:21.000Z</time>
      </trkpt>
      <trkpt lat="46.29576" lon="-0.71517">
        <ele>2.5</ele>
        <time>2015-05-11T07:39:23.000Z</time>
      </trkpt>
      <trkpt lat="46.2958" lon="-0.71523">
        <ele>2.8</ele>
        <time>2015-05-11T07:39:27.000Z</time>
      </trkpt>
      <trkpt lat="46.29585" lon="-0.71531">
        <ele>2.8</ele>
        <time>2015-05-11T07:39:31.000Z</time>
      </trkpt>
      <trkpt lat="46.29594" lon="-0.7154">
        <ele>2.5</ele>
        <time>2015-05-11T07:39:38.000Z</time>
      </trkpt>
      <trkpt lat="46.29595" lon="-0.71541">
        <ele>2.5</ele>
        <time>2015-05-11T07:39:39.000Z</time>
      </trkpt>
      <trkpt lat="46.29599" lon="-0.71548">
        <ele>2.5</ele>
        <time>2015-05-11T07:39:43.000Z</time>
      </trkpt>
      <trkpt lat="46.29603" lon="-0.71554">
        <ele>2.7</ele>
        <time>2015-05-11T07:39:47.000Z</time>
      </trkpt>
      <trkpt lat="46.29609" lon="-0.71562">
        <ele>2.9</ele>
        <time>2015-05-11T07:39:53.000Z</time>
      </trkpt>
      <trkpt lat="46.29611" lon="-0.71563">
        <ele>3</ele>
        <time>2015-05-11T07:39:54.000Z</time>
      </trkpt>
      <trkpt lat="46.29613" lon="-0.71565">
        <ele>2.9</ele>
        <time>2015-05-11T07:39:56.000Z</time>
      </trkpt>
      <trkpt lat="46.29619" lon="-0.71572">
        <ele>2.7</ele>
        <time>2015-05-11T07:40:01.000Z</time>
      </trkpt>
      <trkpt lat="46.29621" lon="-0.71575">
        <ele>2.6</ele>
        <time>2015-05-11T07:40:03.000Z</time>
      </trkpt>
      <trkpt lat="46.29628" lon="-0.7158">
        <ele>2.4</ele>
        <time>2015-05-11T07:40:08.000Z</time>
      </trkpt>
      <trkpt lat="46.29636" lon="-0.71588">
        <ele>2.3</ele>
        <time>2015-05-11T07:40:14.000Z</time>
      </trkpt>
      <trkpt lat="46.29644" lon="-0.71596">
        <ele>2.5</ele>
        <time>2015-05-11T07:40:21.000Z</time>
      </trkpt>
      <trkpt lat="46.29645" lon="-0.71597">
        <ele>2.6</ele>
        <time>2015-05-11T07:40:22.000Z</time>
      </trkpt>
      <trkpt lat="46.2965" lon="-0.71605">
        <ele>2.9</ele>
        <time>2015-05-11T07:40:27.000Z</time>
      </trkpt>
      <trkpt lat="46.29645" lon="-0.71616">
        <ele>3</ele>
        <time>2015-05-11T07:40:35.000Z</time>
      </trkpt>
      <trkpt lat="46.29644" lon="-0.71622">
        <ele>3</ele>
        <time>2015-05-11T07:40:39.000Z</time>
      </trkpt>
      <trkpt lat="46.29638" lon="-0.71636">
        <ele>3</ele>
        <time>2015-05-11T07:40:48.000Z</time>
      </trkpt>
      <trkpt lat="46.29633" lon="-0.71646">
        <ele>2.8</ele>
        <time>2015-05-11T07:40:55.000Z</time>
      </trkpt>
      <trkpt lat="46.29631" lon="-0.71651">
        <ele>2.7</ele>
        <time>2015-05-11T07:40:59.000Z</time>
      </trkpt>
      <trkpt lat="46.29622" lon="-0.71661">
        <ele>2.7</ele>
        <time>2015-05-11T07:41:07.000Z</time>
      </trkpt>
      <trkpt lat="46.29615" lon="-0.71672">
        <ele>2.9</ele>
        <time>2015-05-11T07:41:15.000Z</time>
      </trkpt>
      <trkpt lat="46.29613" lon="-0.71674">
        <ele>2.9</ele>
        <time>2015-05-11T07:41:17.000Z</time>
      </trkpt>
      <trkpt lat="46.29604" lon="-0.71684">
        <ele>3</ele>
        <time>2015-05-11T07:41:25.000Z</time>
      </trkpt>
      <trkpt lat="46.29596" lon="-0.71692">
        <ele>3</ele>
        <time>2015-05-11T07:41:32.000Z</time>
      </trkpt>
      <trkpt lat="46.29589" lon="-0.717">
        <ele>2.8</ele>
        <time>2015-05-11T07:41:39.000Z</time>
      </trkpt>
      <trkpt lat="46.29583" lon="-0.71706">
        <ele>2.6</ele>
        <time>2015-05-11T07:41:45.000Z</time>
      </trkpt>
      <trkpt lat="46.29575" lon="-0.71713">
        <ele>2.5</ele>
        <time>2015-05-11T07:41:52.000Z</time>
      </trkpt>
      <trkpt lat="46.29566" lon="-0.71722">
        <ele>2.6</ele>
        <time>2015-05-11T07:42:01.000Z</time>
      </trkpt>
      <trkpt lat="46.29559" lon="-0.71725">
        <ele>2.9</ele>
        <time>2015-05-11T07:42:07.000Z</time>
      </trkpt>
      <trkpt lat="46.29558" lon="-0.71725">
        <ele>2.9</ele>
        <time>2015-05-11T07:42:08.000Z</time>
      </trkpt>
      <trkpt lat="46.29548" lon="-0.71734">
        <ele>3</ele>
        <time>2015-05-11T07:42:16.000Z</time>
      </trkpt>
      <trkpt lat="46.2954" lon="-0.71743">
        <ele>3</ele>
        <time>2015-05-11T07:42:23.000Z</time>
      </trkpt>
      <trkpt lat="46.29528" lon="-0.71755">
        <ele>2.8</ele>
        <time>2015-05-11T07:42:32.000Z</time>
      </trkpt>
      <trkpt lat="46.29516" lon="-0.71767">
        <ele>2.5</ele>
        <time>2015-05-11T07:42:42.000Z</time>
      </trkpt>
      <trkpt lat="46.29505" lon="-0.71777">
        <ele>2.8</ele>
        <time>2015-05-11T07:42:51.000Z</time>
      </trkpt>
      <trkpt lat="46.29498" lon="-0.71783">
        <ele>2.8</ele>
        <time>2015-05-11T07:42:58.000Z</time>
      </trkpt>
      <trkpt lat="46.29497" lon="-0.71784">
        <ele>2.7</ele>
        <time>2015-05-11T07:42:59.000Z</time>
      </trkpt>
      <trkpt lat="46.29493" lon="-0.71791">
        <ele>2.5</ele>
        <time>2015-05-11T07:43:04.000Z</time>
      </trkpt>
      <trkpt lat="46.29491" lon="-0.71793">
        <ele>2.5</ele>
        <time>2015-05-11T07:43:06.000Z</time>
      </trkpt>
      <trkpt lat="46.29484" lon="-0.71801">
        <ele>2.6</ele>
        <time>2015-05-11T07:43:13.000Z</time>
      </trkpt>
      <trkpt lat="46.29476" lon="-0.71807">
        <ele>2.9</ele>
        <time>2015-05-11T07:43:20.000Z</time>
      </trkpt>
      <trkpt lat="46.29469" lon="-0.71814">
        <ele>3</ele>
        <time>2015-05-11T07:43:27.000Z</time>
      </trkpt>
      <trkpt lat="46.29459" lon="-0.71828">
        <ele>3</ele>
        <time>2015-05-11T07:43:36.000Z</time>
      </trkpt>
      <trkpt lat="46.29446" lon="-0.71837">
        <ele>3</ele>
        <time>2015-05-11T07:43:46.000Z</time>
      </trkpt>
      <trkpt lat="46.29439" lon="-0.71841">
        <ele>2.8</ele>
        <time>2015-05-11T07:43:52.000Z</time>
      </trkpt>
      <trkpt lat="46.29431" lon="-0.71845">
        <ele>2.5</ele>
        <time>2015-05-11T07:43:58.000Z</time>
      </trkpt>
      <trkpt lat="46.29427" lon="-0.71848">
        <ele>2.4</ele>
        <time>2015-05-11T07:44:01.000Z</time>
      </trkpt>
      <trkpt lat="46.29421" lon="-0.71853">
        <ele>2.1</ele>
        <time>2015-05-11T07:44:07.000Z</time>
      </trkpt>
      <trkpt lat="46.29419" lon="-0.71854">
        <ele>2.1</ele>
        <time>2015-05-11T07:44:09.000Z</time>
      </trkpt>
      <trkpt lat="46.29411" lon="-0.71862">
        <ele>2</ele>
        <time>2015-05-11T07:44:17.000Z</time>
      </trkpt>
      <trkpt lat="46.29404" lon="-0.71867">
        <ele>2</ele>
        <time>2015-05-11T07:44:23.000Z</time>
      </trkpt>
      <trkpt lat="46.29394" lon="-0.71874">
        <ele>2</ele>
        <time>2015-05-11T07:44:32.000Z</time>
      </trkpt>
      <trkpt lat="46.29385" lon="-0.71882">
        <ele>2.1</ele>
        <time>2015-05-11T07:44:40.000Z</time>
      </trkpt>
      <trkpt lat="46.29379" lon="-0.71892">
        <ele>2.4</ele>
        <time>2015-05-11T07:44:47.000Z</time>
      </trkpt>
      <trkpt lat="46.29377" lon="-0.71896">
        <ele>2.6</ele>
        <time>2015-05-11T07:44:50.000Z</time>
      </trkpt>
      <trkpt lat="46.29375" lon="-0.71896">
        <ele>2.6</ele>
        <time>2015-05-11T07:44:57.000Z</time>
      </trkpt>
      <trkpt lat="46.29375" lon="-0.71898">
        <ele>2.7</ele>
        <time>2015-05-11T07:45:03.000Z</time>
      </trkpt>
      <trkpt lat="46.29377" lon="-0.71899">
        <ele>2.7</ele>
        <time>2015-05-11T07:45:11.000Z</time>
      </trkpt>
      <trkpt lat="46.29375" lon="-0.719">
        <ele>2.7</ele>
        <time>2015-05-11T07:45:22.000Z</time>
      </trkpt>
      <trkpt lat="46.29373" lon="-0.71902">
        <ele>2.8</ele>
        <time>2015-05-11T07:45:40.000Z</time>
      </trkpt>
      <trkpt lat="46.2937" lon="-0.71903">
        <ele>2.8</ele>
        <time>2015-05-11T07:46:41.000Z</time>
      </trkpt>
      <trkpt lat="46.29374" lon="-0.71903">
        <ele>2.8</ele>
        <time>2015-05-11T07:47:06.000Z</time>
      </trkpt>
      <trkpt lat="46.29373" lon="-0.71902">
        <ele>2.8</ele>
        <time>2015-05-11T07:47:12.000Z</time>
      </trkpt>
      <trkpt lat="46.29372" lon="-0.71902">
        <ele>2.8</ele>
        <time>2015-05-11T07:47:22.000Z</time>
      </trkpt>
      <trkpt lat="46.29369" lon="-0.71902">
        <ele>2.8</ele>
        <time>2015-05-11T07:47:33.000Z</time>
      </trkpt>
      <trkpt lat="46.2937" lon="-0.71901">
        <ele>2.8</ele>
        <time>2015-05-11T07:48:45.000Z</time>
      </trkpt>
      <trkpt lat="46.29374" lon="-0.71903">
        <ele>2.8</ele>
        <time>2015-05-11T07:49:21.000Z</time>
      </trkpt>
      <trkpt lat="46.29369" lon="-0.719">
        <ele>2.8</ele>
        <time>2015-05-11T07:51:40.000Z</time>
      </trkpt>
      <trkpt lat="46.29366" lon="-0.71894">
        <ele>2.9</ele>
        <time>2015-05-11T07:51:45.000Z</time>
      </trkpt>
      <trkpt lat="46.29364" lon="-0.71891">
        <ele>2.9</ele>
        <time>2015-05-11T07:51:48.000Z</time>
      </trkpt>
      <trkpt lat="46.29359" lon="-0.71874">
        <ele>2.4</ele>
        <time>2015-05-11T07:51:57.000Z</time>
      </trkpt>
      <trkpt lat="46.29356" lon="-0.71864">
        <ele>2.1</ele>
        <time>2015-05-11T07:52:02.000Z</time>
      </trkpt>
      <trkpt lat="46.29354" lon="-0.71848">
        <ele>2</ele>
        <time>2015-05-11T07:52:10.000Z</time>
      </trkpt>
      <trkpt lat="46.29353" lon="-0.71837">
        <ele>2</ele>
        <time>2015-05-11T07:52:16.000Z</time>
      </trkpt>
      <trkpt lat="46.29352" lon="-0.71833">
        <ele>2</ele>
        <time>2015-05-11T07:52:18.000Z</time>
      </trkpt>
      <trkpt lat="46.29352" lon="-0.71829">
        <ele>2</ele>
        <time>2015-05-11T07:52:20.000Z</time>
      </trkpt>
      <trkpt lat="46.29351" lon="-0.71818">
        <ele>2</ele>
        <time>2015-05-11T07:52:26.000Z</time>
      </trkpt>
      <trkpt lat="46.2935" lon="-0.71811">
        <ele>2</ele>
        <time>2015-05-11T07:52:30.000Z</time>
      </trkpt>
      <trkpt lat="46.29345" lon="-0.71791">
        <ele>2</ele>
        <time>2015-05-11T07:52:40.000Z</time>
      </trkpt>
      <trkpt lat="46.29339" lon="-0.71775">
        <ele>2</ele>
        <time>2015-05-11T07:52:48.000Z</time>
      </trkpt>
      <trkpt lat="46.29331" lon="-0.71754">
        <ele>2</ele>
        <time>2015-05-11T07:52:58.000Z</time>
      </trkpt>
      <trkpt lat="46.29322" lon="-0.71738">
        <ele>2</ele>
        <time>2015-05-11T07:53:07.000Z</time>
      </trkpt>
      <trkpt lat="46.2931" lon="-0.71736">
        <ele>2</ele>
        <time>2015-05-11T07:53:15.000Z</time>
      </trkpt>
      <trkpt lat="46.29298" lon="-0.71746">
        <ele>2</ele>
        <time>2015-05-11T07:53:24.000Z</time>
      </trkpt>
      <trkpt lat="46.29286" lon="-0.71761">
        <ele>2</ele>
        <time>2015-05-11T07:53:35.000Z</time>
      </trkpt>
      <trkpt lat="46.29272" lon="-0.71778">
        <ele>2</ele>
        <time>2015-05-11T07:53:47.000Z</time>
      </trkpt>
      <trkpt lat="46.29265" lon="-0.71788">
        <ele>2</ele>
        <time>2015-05-11T07:53:54.000Z</time>
      </trkpt>
      <trkpt lat="46.29255" lon="-0.71801">
        <ele>2</ele>
        <time>2015-05-11T07:54:03.000Z</time>
      </trkpt>
      <trkpt lat="46.29247" lon="-0.71809">
        <ele>2</ele>
        <time>2015-05-11T07:54:10.000Z</time>
      </trkpt>
      <trkpt lat="46.29239" lon="-0.71812">
        <ele>2</ele>
        <time>2015-05-11T07:54:16.000Z</time>
      </trkpt>
      <trkpt lat="46.29232" lon="-0.71806">
        <ele>2</ele>
        <time>2015-05-11T07:54:22.000Z</time>
      </trkpt>
      <trkpt lat="46.29222" lon="-0.71792">
        <ele>2</ele>
        <time>2015-05-11T07:54:32.000Z</time>
      </trkpt>
      <trkpt lat="46.29209" lon="-0.71774">
        <ele>2</ele>
        <time>2015-05-11T07:54:44.000Z</time>
      </trkpt>
      <trkpt lat="46.29202" lon="-0.71762">
        <ele>2</ele>
        <time>2015-05-11T07:54:51.000Z</time>
      </trkpt>
      <trkpt lat="46.29191" lon="-0.71746">
        <ele>2.1</ele>
        <time>2015-05-11T07:55:01.000Z</time>
      </trkpt>
      <trkpt lat="46.29184" lon="-0.71736">
        <ele>2.3</ele>
        <time>2015-05-11T07:55:08.000Z</time>
      </trkpt>
      <trkpt lat="46.29176" lon="-0.71726">
        <ele>2.3</ele>
        <time>2015-05-11T07:55:16.000Z</time>
      </trkpt>
      <trkpt lat="46.29175" lon="-0.71725">
        <ele>2.3</ele>
        <time>2015-05-11T07:55:17.000Z</time>
      </trkpt>
      <trkpt lat="46.29171" lon="-0.71727">
        <ele>2.1</ele>
        <time>2015-05-11T07:55:20.000Z</time>
      </trkpt>
      <trkpt lat="46.29169" lon="-0.71729">
        <ele>2.1</ele>
        <time>2015-05-11T07:55:22.000Z</time>
      </trkpt>
      <trkpt lat="46.29161" lon="-0.71741">
        <ele>2.2</ele>
        <time>2015-05-11T07:55:30.000Z</time>
      </trkpt>
      <trkpt lat="46.29154" lon="-0.71756">
        <ele>2.4</ele>
        <time>2015-05-11T07:55:39.000Z</time>
      </trkpt>
      <trkpt lat="46.29146" lon="-0.71769">
        <ele>2.2</ele>
        <time>2015-05-11T07:55:47.000Z</time>
      </trkpt>
      <trkpt lat="46.29139" lon="-0.71772">
        <ele>2.2</ele>
        <time>2015-05-11T07:55:53.000Z</time>
      </trkpt>
      <trkpt lat="46.29132" lon="-0.71763">
        <ele>2.7</ele>
        <time>2015-05-11T07:56:00.000Z</time>
      </trkpt>
      <trkpt lat="46.2913" lon="-0.71762">
        <ele>2.7</ele>
        <time>2015-05-11T07:56:01.000Z</time>
      </trkpt>
      <trkpt lat="46.29127" lon="-0.71758">
        <ele>2.8</ele>
        <time>2015-05-11T07:56:04.000Z</time>
      </trkpt>
      <trkpt lat="46.29123" lon="-0.71751">
        <ele>3</ele>
        <time>2015-05-11T07:56:09.000Z</time>
      </trkpt>
      <trkpt lat="46.29118" lon="-0.71746">
        <ele>3</ele>
        <time>2015-05-11T07:56:14.000Z</time>
      </trkpt>
      <trkpt lat="46.29113" lon="-0.71739">
        <ele>3</ele>
        <time>2015-05-11T07:56:20.000Z</time>
      </trkpt>
      <trkpt lat="46.29102" lon="-0.71727">
        <ele>3</ele>
        <time>2015-05-11T07:56:30.000Z</time>
      </trkpt>
      <trkpt lat="46.29096" lon="-0.7172">
        <ele>3</ele>
        <time>2015-05-11T07:56:35.000Z</time>
      </trkpt>
      <trkpt lat="46.29089" lon="-0.7171">
        <ele>2.6</ele>
        <time>2015-05-11T07:56:41.000Z</time>
      </trkpt>
      <trkpt lat="46.29088" lon="-0.71709">
        <ele>2.6</ele>
        <time>2015-05-11T07:56:42.000Z</time>
      </trkpt>
      <trkpt lat="46.29081" lon="-0.717">
        <ele>2.2</ele>
        <time>2015-05-11T07:56:48.000Z</time>
      </trkpt>
      <trkpt lat="46.29077" lon="-0.71695">
        <ele>2.2</ele>
        <time>2015-05-11T07:56:52.000Z</time>
      </trkpt>
      <trkpt lat="46.29069" lon="-0.7169">
        <ele>2.5</ele>
        <time>2015-05-11T07:56:59.000Z</time>
      </trkpt>
      <trkpt lat="46.29067" lon="-0.7169">
        <ele>2.6</ele>
        <time>2015-05-11T07:57:00.000Z</time>
      </trkpt>
      <trkpt lat="46.29061" lon="-0.71689">
        <ele>2.8</ele>
        <time>2015-05-11T07:57:04.000Z</time>
      </trkpt>
      <trkpt lat="46.29057" lon="-0.71687">
        <ele>2.9</ele>
        <time>2015-05-11T07:57:07.000Z</time>
      </trkpt>
      <trkpt lat="46.29053" lon="-0.71684">
        <ele>3</ele>
        <time>2015-05-11T07:57:11.000Z</time>
      </trkpt>
      <trkpt lat="46.29044" lon="-0.71679">
        <ele>3</ele>
        <time>2015-05-11T07:57:18.000Z</time>
      </trkpt>
      <trkpt lat="46.29024" lon="-0.71666">
        <ele>3</ele>
        <time>2015-05-11T07:57:33.000Z</time>
      </trkpt>
      <trkpt lat="46.29013" lon="-0.71662">
        <ele>2.8</ele>
        <time>2015-05-11T07:57:40.000Z</time>
      </trkpt>
      <trkpt lat="46.29005" lon="-0.71658">
        <ele>2.7</ele>
        <time>2015-05-11T07:57:45.000Z</time>
      </trkpt>
      <trkpt lat="46.28996" lon="-0.71649">
        <ele>2.3</ele>
        <time>2015-05-11T07:57:52.000Z</time>
      </trkpt>
      <trkpt lat="46.2899" lon="-0.71644">
        <ele>2.1</ele>
        <time>2015-05-11T07:57:57.000Z</time>
      </trkpt>
      <trkpt lat="46.28981" lon="-0.71635">
        <ele>2</ele>
        <time>2015-05-11T07:58:03.000Z</time>
      </trkpt>
      <trkpt lat="46.28972" lon="-0.71632">
        <ele>2</ele>
        <time>2015-05-11T07:58:09.000Z</time>
      </trkpt>
      <trkpt lat="46.28964" lon="-0.71635">
        <ele>2</ele>
        <time>2015-05-11T07:58:15.000Z</time>
      </trkpt>
      <trkpt lat="46.28954" lon="-0.71644">
        <ele>2</ele>
        <time>2015-05-11T07:58:23.000Z</time>
      </trkpt>
      <trkpt lat="46.28945" lon="-0.71652">
        <ele>2</ele>
        <time>2015-05-11T07:58:30.000Z</time>
      </trkpt>
      <trkpt lat="46.28934" lon="-0.71661">
        <ele>2.3</ele>
        <time>2015-05-11T07:58:38.000Z</time>
      </trkpt>
      <trkpt lat="46.28922" lon="-0.71672">
        <ele>2.7</ele>
        <time>2015-05-11T07:58:47.000Z</time>
      </trkpt>
      <trkpt lat="46.28918" lon="-0.71676">
        <ele>2.7</ele>
        <time>2015-05-11T07:58:50.000Z</time>
      </trkpt>
      <trkpt lat="46.28911" lon="-0.71675">
        <ele>2.6</ele>
        <time>2015-05-11T07:58:56.000Z</time>
      </trkpt>
      <trkpt lat="46.2891" lon="-0.71675">
        <ele>2.5</ele>
        <time>2015-05-11T07:58:57.000Z</time>
      </trkpt>
      <trkpt lat="46.28903" lon="-0.71665">
        <ele>2.5</ele>
        <time>2015-05-11T07:59:04.000Z</time>
      </trkpt>
      <trkpt lat="46.28898" lon="-0.71652">
        <ele>2.2</ele>
        <time>2015-05-11T07:59:11.000Z</time>
      </trkpt>
      <trkpt lat="46.28893" lon="-0.71637">
        <ele>2</ele>
        <time>2015-05-11T07:59:19.000Z</time>
      </trkpt>
      <trkpt lat="46.28893" lon="-0.71636">
        <ele>2</ele>
        <time>2015-05-11T07:59:20.000Z</time>
      </trkpt>
      <trkpt lat="46.28887" lon="-0.71624">
        <ele>2</ele>
        <time>2015-05-11T07:59:27.000Z</time>
      </trkpt>
      <trkpt lat="46.2888" lon="-0.71613">
        <ele>2</ele>
        <time>2015-05-11T07:59:35.000Z</time>
      </trkpt>
      <trkpt lat="46.28874" lon="-0.71612">
        <ele>2</ele>
        <time>2015-05-11T07:59:39.000Z</time>
      </trkpt>
      <trkpt lat="46.28869" lon="-0.71614">
        <ele>2</ele>
        <time>2015-05-11T07:59:43.000Z</time>
      </trkpt>
      <trkpt lat="46.2886" lon="-0.71624">
        <ele>2</ele>
        <time>2015-05-11T07:59:51.000Z</time>
      </trkpt>
      <trkpt lat="46.2885" lon="-0.71637">
        <ele>2</ele>
        <time>2015-05-11T08:00:00.000Z</time>
      </trkpt>
      <trkpt lat="46.28841" lon="-0.71641">
        <ele>2</ele>
        <time>2015-05-11T08:00:07.000Z</time>
      </trkpt>
      <trkpt lat="46.28831" lon="-0.71638">
        <ele>2</ele>
        <time>2015-05-11T08:00:14.000Z</time>
      </trkpt>
      <trkpt lat="46.28821" lon="-0.71629">
        <ele>2</ele>
        <time>2015-05-11T08:00:21.000Z</time>
      </trkpt>
      <trkpt lat="46.28813" lon="-0.71617">
        <ele>2</ele>
        <time>2015-05-11T08:00:29.000Z</time>
      </trkpt>
      <trkpt lat="46.28812" lon="-0.71615">
        <ele>2</ele>
        <time>2015-05-11T08:00:30.000Z</time>
      </trkpt>
      <trkpt lat="46.28807" lon="-0.71607">
        <ele>2</ele>
        <time>2015-05-11T08:00:35.000Z</time>
      </trkpt>
      <trkpt lat="46.28801" lon="-0.71596">
        <ele>2</ele>
        <time>2015-05-11T08:00:42.000Z</time>
      </trkpt>
      <trkpt lat="46.28797" lon="-0.71588">
        <ele>2</ele>
        <time>2015-05-11T08:00:47.000Z</time>
      </trkpt>
      <trkpt lat="46.28791" lon="-0.7158">
        <ele>2</ele>
        <time>2015-05-11T08:00:53.000Z</time>
      </trkpt>
      <trkpt lat="46.28785" lon="-0.7157">
        <ele>2</ele>
        <time>2015-05-11T08:01:00.000Z</time>
      </trkpt>
      <trkpt lat="46.28779" lon="-0.71558">
        <ele>2</ele>
        <time>2015-05-11T08:01:07.000Z</time>
      </trkpt>
      <trkpt lat="46.28777" lon="-0.71553">
        <ele>2</ele>
        <time>2015-05-11T08:01:10.000Z</time>
      </trkpt>
      <trkpt lat="46.28769" lon="-0.71538">
        <ele>2</ele>
        <time>2015-05-11T08:01:19.000Z</time>
      </trkpt>
      <trkpt lat="46.2876" lon="-0.71522">
        <ele>2.1</ele>
        <time>2015-05-11T08:01:29.000Z</time>
      </trkpt>
      <trkpt lat="46.28754" lon="-0.71511">
        <ele>2.5</ele>
        <time>2015-05-11T08:01:36.000Z</time>
      </trkpt>
      <trkpt lat="46.28747" lon="-0.71499">
        <ele>2.8</ele>
        <time>2015-05-11T08:01:44.000Z</time>
      </trkpt>
      <trkpt lat="46.28739" lon="-0.71488">
        <ele>2.5</ele>
        <time>2015-05-11T08:01:51.000Z</time>
      </trkpt>
      <trkpt lat="46.28733" lon="-0.71479">
        <ele>2.6</ele>
        <time>2015-05-11T08:01:57.000Z</time>
      </trkpt>
      <trkpt lat="46.28728" lon="-0.71474">
        <ele>2.7</ele>
        <time>2015-05-11T08:02:01.000Z</time>
      </trkpt>
      <trkpt lat="46.2872" lon="-0.71469">
        <ele>2.8</ele>
        <time>2015-05-11T08:02:08.000Z</time>
      </trkpt>
      <trkpt lat="46.28711" lon="-0.71462">
        <ele>2.4</ele>
        <time>2015-05-11T08:02:14.000Z</time>
      </trkpt>
      <trkpt lat="46.28708" lon="-0.7146">
        <ele>2.3</ele>
        <time>2015-05-11T08:02:16.000Z</time>
      </trkpt>
      <trkpt lat="46.28698" lon="-0.71454">
        <ele>2</ele>
        <time>2015-05-11T08:02:24.000Z</time>
      </trkpt>
      <trkpt lat="46.2869" lon="-0.71448">
        <ele>2</ele>
        <time>2015-05-11T08:02:30.000Z</time>
      </trkpt>
      <trkpt lat="46.28682" lon="-0.71437">
        <ele>2</ele>
        <time>2015-05-11T08:02:36.000Z</time>
      </trkpt>
      <trkpt lat="46.28681" lon="-0.71435">
        <ele>2</ele>
        <time>2015-05-11T08:02:37.000Z</time>
      </trkpt>
      <trkpt lat="46.28674" lon="-0.71424">
        <ele>2</ele>
        <time>2015-05-11T08:02:44.000Z</time>
      </trkpt>
      <trkpt lat="46.28673" lon="-0.71422">
        <ele>2</ele>
        <time>2015-05-11T08:02:45.000Z</time>
      </trkpt>
      <trkpt lat="46.28666" lon="-0.7141">
        <ele>2</ele>
        <time>2015-05-11T08:02:52.000Z</time>
      </trkpt>
      <trkpt lat="46.28657" lon="-0.71396">
        <ele>2</ele>
        <time>2015-05-11T08:02:59.000Z</time>
      </trkpt>
      <trkpt lat="46.2865" lon="-0.71384">
        <ele>2</ele>
        <time>2015-05-11T08:03:06.000Z</time>
      </trkpt>
      <trkpt lat="46.28642" lon="-0.71373">
        <ele>2</ele>
        <time>2015-05-11T08:03:14.000Z</time>
      </trkpt>
      <trkpt lat="46.28635" lon="-0.71362">
        <ele>2</ele>
        <time>2015-05-11T08:03:21.000Z</time>
      </trkpt>
      <trkpt lat="46.28627" lon="-0.71347">
        <ele>2</ele>
        <time>2015-05-11T08:03:30.000Z</time>
      </trkpt>
      <trkpt lat="46.28616" lon="-0.71331">
        <ele>2</ele>
        <time>2015-05-11T08:03:40.000Z</time>
      </trkpt>
      <trkpt lat="46.28607" lon="-0.71319">
        <ele>2</ele>
        <time>2015-05-11T08:03:48.000Z</time>
      </trkpt>
      <trkpt lat="46.286" lon="-0.71307">
        <ele>2</ele>
        <time>2015-05-11T08:03:56.000Z</time>
      </trkpt>
      <trkpt lat="46.28598" lon="-0.71304">
        <ele>2</ele>
        <time>2015-05-11T08:03:58.000Z</time>
      </trkpt>
      <trkpt lat="46.28594" lon="-0.71296">
        <ele>2</ele>
        <time>2015-05-11T08:04:03.000Z</time>
      </trkpt>
      <trkpt lat="46.28588" lon="-0.71284">
        <ele>2</ele>
        <time>2015-05-11T08:04:10.000Z</time>
      </trkpt>
      <trkpt lat="46.28584" lon="-0.71275">
        <ele>2</ele>
        <time>2015-05-11T08:04:15.000Z</time>
      </trkpt>
      <trkpt lat="46.28579" lon="-0.71267">
        <ele>2</ele>
        <time>2015-05-11T08:04:20.000Z</time>
      </trkpt>
      <trkpt lat="46.28573" lon="-0.7125">
        <ele>2</ele>
        <time>2015-05-11T08:04:29.000Z</time>
      </trkpt>
      <trkpt lat="46.28562" lon="-0.71226">
        <ele>2</ele>
        <time>2015-05-11T08:04:42.000Z</time>
      </trkpt>
      <trkpt lat="46.28555" lon="-0.71209">
        <ele>2</ele>
        <time>2015-05-11T08:04:51.000Z</time>
      </trkpt>
      <trkpt lat="46.28547" lon="-0.71192">
        <ele>2</ele>
        <time>2015-05-11T08:05:00.000Z</time>
      </trkpt>
      <trkpt lat="46.28535" lon="-0.71177">
        <ele>2</ele>
        <time>2015-05-11T08:05:10.000Z</time>
      </trkpt>
      <trkpt lat="46.28522" lon="-0.71166">
        <ele>2</ele>
        <time>2015-05-11T08:05:20.000Z</time>
      </trkpt>
      <trkpt lat="46.28512" lon="-0.71155">
        <ele>2</ele>
        <time>2015-05-11T08:05:29.000Z</time>
      </trkpt>
      <trkpt lat="46.28504" lon="-0.7114">
        <ele>2</ele>
        <time>2015-05-11T08:05:37.000Z</time>
      </trkpt>
      <trkpt lat="46.28495" lon="-0.71121">
        <ele>2</ele>
        <time>2015-05-11T08:05:47.000Z</time>
      </trkpt>
      <trkpt lat="46.28486" lon="-0.71103">
        <ele>2</ele>
        <time>2015-05-11T08:05:57.000Z</time>
      </trkpt>
      <trkpt lat="46.28478" lon="-0.71092">
        <ele>2</ele>
        <time>2015-05-11T08:06:04.000Z</time>
      </trkpt>
      <trkpt lat="46.28469" lon="-0.71085">
        <ele>2</ele>
        <time>2015-05-11T08:06:10.000Z</time>
      </trkpt>
      <trkpt lat="46.28462" lon="-0.71076">
        <ele>2</ele>
        <time>2015-05-11T08:06:16.000Z</time>
      </trkpt>
      <trkpt lat="46.28454" lon="-0.71064">
        <ele>2</ele>
        <time>2015-05-11T08:06:24.000Z</time>
      </trkpt>
      <trkpt lat="46.28447" lon="-0.71051">
        <ele>2</ele>
        <time>2015-05-11T08:06:32.000Z</time>
      </trkpt>
      <trkpt lat="46.28441" lon="-0.71039">
        <ele>2</ele>
        <time>2015-05-11T08:06:39.000Z</time>
      </trkpt>
      <trkpt lat="46.28436" lon="-0.7103">
        <ele>2</ele>
        <time>2015-05-11T08:06:45.000Z</time>
      </trkpt>
      <trkpt lat="46.28429" lon="-0.71016">
        <ele>2</ele>
        <time>2015-05-11T08:06:53.000Z</time>
      </trkpt>
      <trkpt lat="46.28423" lon="-0.71004">
        <ele>2</ele>
        <time>2015-05-11T08:07:00.000Z</time>
      </trkpt>
      <trkpt lat="46.28416" lon="-0.70986">
        <ele>2</ele>
        <time>2015-05-11T08:07:09.000Z</time>
      </trkpt>
      <trkpt lat="46.28408" lon="-0.70969">
        <ele>2</ele>
        <time>2015-05-11T08:07:18.000Z</time>
      </trkpt>
      <trkpt lat="46.28401" lon="-0.70955">
        <ele>2</ele>
        <time>2015-05-11T08:07:26.000Z</time>
      </trkpt>
      <trkpt lat="46.28395" lon="-0.70945">
        <ele>2</ele>
        <time>2015-05-11T08:07:33.000Z</time>
      </trkpt>
      <trkpt lat="46.28388" lon="-0.70932">
        <ele>2</ele>
        <time>2015-05-11T08:07:42.000Z</time>
      </trkpt>
      <trkpt lat="46.28381" lon="-0.70922">
        <ele>2</ele>
        <time>2015-05-11T08:07:49.000Z</time>
      </trkpt>
      <trkpt lat="46.28374" lon="-0.70914">
        <ele>2</ele>
        <time>2015-05-11T08:07:56.000Z</time>
      </trkpt>
      <trkpt lat="46.28364" lon="-0.70901">
        <ele>2</ele>
        <time>2015-05-11T08:08:05.000Z</time>
      </trkpt>
      <trkpt lat="46.28355" lon="-0.70889">
        <ele>2.2</ele>
        <time>2015-05-11T08:08:13.000Z</time>
      </trkpt>
      <trkpt lat="46.28346" lon="-0.70879">
        <ele>2.3</ele>
        <time>2015-05-11T08:08:21.000Z</time>
      </trkpt>
      <trkpt lat="46.28337" lon="-0.70866">
        <ele>2.2</ele>
        <time>2015-05-11T08:08:29.000Z</time>
      </trkpt>
      <trkpt lat="46.28326" lon="-0.70851">
        <ele>2.6</ele>
        <time>2015-05-11T08:08:39.000Z</time>
      </trkpt>
      <trkpt lat="46.28318" lon="-0.70842">
        <ele>3.2</ele>
        <time>2015-05-11T08:08:46.000Z</time>
      </trkpt>
      <trkpt lat="46.28311" lon="-0.7083">
        <ele>4</ele>
        <time>2015-05-11T08:08:53.000Z</time>
      </trkpt>
      <trkpt lat="46.28304" lon="-0.70813">
        <ele>5.5</ele>
        <time>2015-05-11T08:09:02.000Z</time>
      </trkpt>
      <trkpt lat="46.28298" lon="-0.70793">
        <ele>6.3</ele>
        <time>2015-05-11T08:09:11.000Z</time>
      </trkpt>
      <trkpt lat="46.28292" lon="-0.70777">
        <ele>6.5</ele>
        <time>2015-05-11T08:09:19.000Z</time>
      </trkpt>
      <trkpt lat="46.28284" lon="-0.70752">
        <ele>6.9</ele>
        <time>2015-05-11T08:09:31.000Z</time>
      </trkpt>
      <trkpt lat="46.28279" lon="-0.70736">
        <ele>7.5</ele>
        <time>2015-05-11T08:09:39.000Z</time>
      </trkpt>
      <trkpt lat="46.28272" lon="-0.70716">
        <ele>8</ele>
        <time>2015-05-11T08:09:49.000Z</time>
      </trkpt>
      <trkpt lat="46.28266" lon="-0.70696">
        <ele>8</ele>
        <time>2015-05-11T08:09:59.000Z</time>
      </trkpt>
      <trkpt lat="46.28259" lon="-0.70676">
        <ele>8.5</ele>
        <time>2015-05-11T08:10:09.000Z</time>
      </trkpt>
      <trkpt lat="46.28251" lon="-0.70669">
        <ele>8.9</ele>
        <time>2015-05-11T08:10:16.000Z</time>
      </trkpt>
      <trkpt lat="46.28244" lon="-0.70676">
        <ele>8.7</ele>
        <time>2015-05-11T08:10:23.000Z</time>
      </trkpt>
      <trkpt lat="46.28242" lon="-0.7068">
        <ele>8.7</ele>
        <time>2015-05-11T08:10:29.000Z</time>
      </trkpt>
      <trkpt lat="46.28234" lon="-0.70693">
        <ele>8.6</ele>
        <time>2015-05-11T08:10:38.000Z</time>
      </trkpt>
      <trkpt lat="46.28227" lon="-0.70704">
        <ele>8.5</ele>
        <time>2015-05-11T08:10:45.000Z</time>
      </trkpt>
      <trkpt lat="46.28216" lon="-0.70721">
        <ele>8.3</ele>
        <time>2015-05-11T08:10:56.000Z</time>
      </trkpt>
      <trkpt lat="46.28205" lon="-0.70738">
        <ele>7.9</ele>
        <time>2015-05-11T08:11:07.000Z</time>
      </trkpt>
      <trkpt lat="46.28192" lon="-0.70754">
        <ele>6.9</ele>
        <time>2015-05-11T08:11:18.000Z</time>
      </trkpt>
      <trkpt lat="46.28177" lon="-0.70766">
        <ele>6.8</ele>
        <time>2015-05-11T08:11:30.000Z</time>
      </trkpt>
      <trkpt lat="46.28166" lon="-0.70775">
        <ele>7</ele>
        <time>2015-05-11T08:11:39.000Z</time>
      </trkpt>
      <trkpt lat="46.2815" lon="-0.70785">
        <ele>6.7</ele>
        <time>2015-05-11T08:11:51.000Z</time>
      </trkpt>
      <trkpt lat="46.28137" lon="-0.70792">
        <ele>6.5</ele>
        <time>2015-05-11T08:12:01.000Z</time>
      </trkpt>
      <trkpt lat="46.28125" lon="-0.70797">
        <ele>6.3</ele>
        <time>2015-05-11T08:12:09.000Z</time>
      </trkpt>
      <trkpt lat="46.2811" lon="-0.70801">
        <ele>6.1</ele>
        <time>2015-05-11T08:12:19.000Z</time>
      </trkpt>
      <trkpt lat="46.28097" lon="-0.70801">
        <ele>5.6</ele>
        <time>2015-05-11T08:12:28.000Z</time>
      </trkpt>
      <trkpt lat="46.28083" lon="-0.70802">
        <ele>5.1</ele>
        <time>2015-05-11T08:12:38.000Z</time>
      </trkpt>
      <trkpt lat="46.28078" lon="-0.70803">
        <ele>5.1</ele>
        <time>2015-05-11T08:12:41.000Z</time>
      </trkpt>
      <trkpt lat="46.2807" lon="-0.70803">
        <ele>5.1</ele>
        <time>2015-05-11T08:12:46.000Z</time>
      </trkpt>
      <trkpt lat="46.28056" lon="-0.7081">
        <ele>4.8</ele>
        <time>2015-05-11T08:12:56.000Z</time>
      </trkpt>
      <trkpt lat="46.28042" lon="-0.7082">
        <ele>5.2</ele>
        <time>2015-05-11T08:13:07.000Z</time>
      </trkpt>
      <trkpt lat="46.28031" lon="-0.70829">
        <ele>5.8</ele>
        <time>2015-05-11T08:13:15.000Z</time>
      </trkpt>
      <trkpt lat="46.2802" lon="-0.70846">
        <ele>5.8</ele>
        <time>2015-05-11T08:13:26.000Z</time>
      </trkpt>
      <trkpt lat="46.28014" lon="-0.70863">
        <ele>5.4</ele>
        <time>2015-05-11T08:13:35.000Z</time>
      </trkpt>
      <trkpt lat="46.28009" lon="-0.70888">
        <ele>4.7</ele>
        <time>2015-05-11T08:13:48.000Z</time>
      </trkpt>
      <trkpt lat="46.2801" lon="-0.70902">
        <ele>4.7</ele>
        <time>2015-05-11T08:13:56.000Z</time>
      </trkpt>
      <trkpt lat="46.28011" lon="-0.70904">
        <ele>4.6</ele>
        <time>2015-05-11T08:14:02.000Z</time>
      </trkpt>
      <trkpt lat="46.28011" lon="-0.70903">
        <ele>4.6</ele>
        <time>2015-05-11T08:14:14.000Z</time>
      </trkpt>
      <trkpt lat="46.28012" lon="-0.70905">
        <ele>4.6</ele>
        <time>2015-05-11T08:14:55.000Z</time>
      </trkpt>
      <trkpt lat="46.28013" lon="-0.70905">
        <ele>4.5</ele>
        <time>2015-05-11T08:15:30.000Z</time>
      </trkpt>
      <trkpt lat="46.28012" lon="-0.70905">
        <ele>4.6</ele>
        <time>2015-05-11T08:16:02.000Z</time>
      </trkpt>
      <trkpt lat="46.28012" lon="-0.70902">
        <ele>4.6</ele>
        <time>2015-05-11T08:16:09.000Z</time>
      </trkpt>
      <trkpt lat="46.2801" lon="-0.709">
        <ele>4.6</ele>
        <time>2015-05-11T08:16:26.000Z</time>
      </trkpt>
      <trkpt lat="46.28012" lon="-0.70901">
        <ele>4.6</ele>
        <time>2015-05-11T08:16:31.000Z</time>
      </trkpt>
      <trkpt lat="46.28011" lon="-0.709">
        <ele>4.6</ele>
        <time>2015-05-11T08:16:36.000Z</time>
      </trkpt>
      <trkpt lat="46.28011" lon="-0.70902">
        <ele>4.6</ele>
        <time>2015-05-11T08:16:44.000Z</time>
      </trkpt>
      <trkpt lat="46.2801" lon="-0.70908">
        <ele>4.6</ele>
        <time>2015-05-11T08:16:58.000Z</time>
      </trkpt>
      <trkpt lat="46.2801" lon="-0.70909">
        <ele>4.6</ele>
        <time>2015-05-11T08:17:14.000Z</time>
      </trkpt>
      <trkpt lat="46.28011" lon="-0.7091">
        <ele>4.6</ele>
        <time>2015-05-11T08:17:56.000Z</time>
      </trkpt>
      <trkpt lat="46.28011" lon="-0.7091">
        <ele>4.6</ele>
        <time>2015-05-11T08:18:06.000Z</time>
      </trkpt>
      <trkpt lat="46.28011" lon="-0.7091">
        <ele>4.6</ele>
        <time>2015-05-11T08:18:09.000Z</time>
      </trkpt>
      <trkpt lat="46.28011" lon="-0.70909">
        <ele>4.6</ele>
        <time>2015-05-11T08:18:35.000Z</time>
      </trkpt>
      <trkpt lat="46.28013" lon="-0.70908">
        <ele>4.5</ele>
        <time>2015-05-11T08:19:21.000Z</time>
      </trkpt>
      <trkpt lat="46.28014" lon="-0.70915">
        <ele>4.5</ele>
        <time>2015-05-11T08:19:48.000Z</time>
      </trkpt>
      <trkpt lat="46.28019" lon="-0.70927">
        <ele>4.3</ele>
        <time>2015-05-11T08:19:56.000Z</time>
      </trkpt>
      <trkpt lat="46.28026" lon="-0.70944">
        <ele>4.1</ele>
        <time>2015-05-11T08:20:06.000Z</time>
      </trkpt>
      <trkpt lat="46.28033" lon="-0.70959">
        <ele>3.4</ele>
        <time>2015-05-11T08:20:15.000Z</time>
      </trkpt>
      <trkpt lat="46.2804" lon="-0.70975">
        <ele>3</ele>
        <time>2015-05-11T08:20:25.000Z</time>
      </trkpt>
      <trkpt lat="46.28046" lon="-0.70985">
        <ele>3</ele>
        <time>2015-05-11T08:20:31.000Z</time>
      </trkpt>
      <trkpt lat="46.28055" lon="-0.71002">
        <ele>3</ele>
        <time>2015-05-11T08:20:41.000Z</time>
      </trkpt>
      <trkpt lat="46.28061" lon="-0.71016">
        <ele>2.9</ele>
        <time>2015-05-11T08:20:49.000Z</time>
      </trkpt>
      <trkpt lat="46.28067" lon="-0.71028">
        <ele>2.6</ele>
        <time>2015-05-11T08:20:56.000Z</time>
      </trkpt>
      <trkpt lat="46.28074" lon="-0.71041">
        <ele>2.3</ele>
        <time>2015-05-11T08:21:04.000Z</time>
      </trkpt>
      <trkpt lat="46.2808" lon="-0.71049">
        <ele>2.1</ele>
        <time>2015-05-11T08:21:10.000Z</time>
      </trkpt>
      <trkpt lat="46.28091" lon="-0.71059">
        <ele>2</ele>
        <time>2015-05-11T08:21:19.000Z</time>
      </trkpt>
      <trkpt lat="46.28102" lon="-0.71073">
        <ele>2</ele>
        <time>2015-05-11T08:21:29.000Z</time>
      </trkpt>
      <trkpt lat="46.28112" lon="-0.71091">
        <ele>2</ele>
        <time>2015-05-11T08:21:39.000Z</time>
      </trkpt>
      <trkpt lat="46.2812" lon="-0.71107">
        <ele>2</ele>
        <time>2015-05-11T08:21:48.000Z</time>
      </trkpt>
      <trkpt lat="46.28127" lon="-0.71122">
        <ele>2</ele>
        <time>2015-05-11T08:21:56.000Z</time>
      </trkpt>
      <trkpt lat="46.28136" lon="-0.71137">
        <ele>2</ele>
        <time>2015-05-11T08:22:05.000Z</time>
      </trkpt>
      <trkpt lat="46.28139" lon="-0.71146">
        <ele>2</ele>
        <time>2015-05-11T08:22:10.000Z</time>
      </trkpt>
      <trkpt lat="46.28144" lon="-0.71158">
        <ele>2</ele>
        <time>2015-05-11T08:22:17.000Z</time>
      </trkpt>
      <trkpt lat="46.28147" lon="-0.7117">
        <ele>2</ele>
        <time>2015-05-11T08:22:23.000Z</time>
      </trkpt>
      <trkpt lat="46.28149" lon="-0.71186">
        <ele>2</ele>
        <time>2015-05-11T08:22:31.000Z</time>
      </trkpt>
      <trkpt lat="46.28151" lon="-0.71206">
        <ele>2</ele>
        <time>2015-05-11T08:22:41.000Z</time>
      </trkpt>
      <trkpt lat="46.28154" lon="-0.71223">
        <ele>2</ele>
        <time>2015-05-11T08:22:49.000Z</time>
      </trkpt>
      <trkpt lat="46.2816" lon="-0.71241">
        <ele>2.5</ele>
        <time>2015-05-11T08:22:58.000Z</time>
      </trkpt>
      <trkpt lat="46.28166" lon="-0.71252">
        <ele>3</ele>
        <time>2015-05-11T08:23:05.000Z</time>
      </trkpt>
      <trkpt lat="46.28171" lon="-0.71265">
        <ele>2.8</ele>
        <time>2015-05-11T08:23:12.000Z</time>
      </trkpt>
      <trkpt lat="46.28178" lon="-0.71275">
        <ele>2.6</ele>
        <time>2015-05-11T08:23:19.000Z</time>
      </trkpt>
      <trkpt lat="46.28184" lon="-0.71284">
        <ele>2.4</ele>
        <time>2015-05-11T08:23:25.000Z</time>
      </trkpt>
      <trkpt lat="46.2819" lon="-0.71297">
        <ele>2.6</ele>
        <time>2015-05-11T08:23:32.000Z</time>
      </trkpt>
      <trkpt lat="46.28193" lon="-0.71308">
        <ele>2.9</ele>
        <time>2015-05-11T08:23:37.000Z</time>
      </trkpt>
      <trkpt lat="46.282" lon="-0.71326">
        <ele>2.2</ele>
        <time>2015-05-11T08:23:46.000Z</time>
      </trkpt>
      <trkpt lat="46.28203" lon="-0.71334">
        <ele>2</ele>
        <time>2015-05-11T08:23:50.000Z</time>
      </trkpt>
      <trkpt lat="46.28206" lon="-0.71341">
        <ele>2</ele>
        <time>2015-05-11T08:23:54.000Z</time>
      </trkpt>
      <trkpt lat="46.2821" lon="-0.71352">
        <ele>2</ele>
        <time>2015-05-11T08:24:00.000Z</time>
      </trkpt>
      <trkpt lat="46.28215" lon="-0.71366">
        <ele>2</ele>
        <time>2015-05-11T08:24:07.000Z</time>
      </trkpt>
      <trkpt lat="46.28219" lon="-0.71382">
        <ele>2</ele>
        <time>2015-05-11T08:24:15.000Z</time>
      </trkpt>
      <trkpt lat="46.2822" lon="-0.71384">
        <ele>2</ele>
        <time>2015-05-11T08:24:16.000Z</time>
      </trkpt>
      <trkpt lat="46.28226" lon="-0.71403">
        <ele>2</ele>
        <time>2015-05-11T08:24:26.000Z</time>
      </trkpt>
      <trkpt lat="46.28229" lon="-0.71414">
        <ele>2</ele>
        <time>2015-05-11T08:24:31.000Z</time>
      </trkpt>
      <trkpt lat="46.28235" lon="-0.71432">
        <ele>2</ele>
        <time>2015-05-11T08:24:41.000Z</time>
      </trkpt>
      <trkpt lat="46.28238" lon="-0.71444">
        <ele>2</ele>
        <time>2015-05-11T08:24:47.000Z</time>
      </trkpt>
      <trkpt lat="46.28243" lon="-0.71456">
        <ele>2</ele>
        <time>2015-05-11T08:24:54.000Z</time>
      </trkpt>
      <trkpt lat="46.28249" lon="-0.71466">
        <ele>2</ele>
        <time>2015-05-11T08:25:00.000Z</time>
      </trkpt>
      <trkpt lat="46.28257" lon="-0.71475">
        <ele>2</ele>
        <time>2015-05-11T08:25:07.000Z</time>
      </trkpt>
      <trkpt lat="46.28266" lon="-0.71488">
        <ele>2</ele>
        <time>2015-05-11T08:25:16.000Z</time>
      </trkpt>
      <trkpt lat="46.28273" lon="-0.71497">
        <ele>2</ele>
        <time>2015-05-11T08:25:23.000Z</time>
      </trkpt>
      <trkpt lat="46.28282" lon="-0.71507">
        <ele>2</ele>
        <time>2015-05-11T08:25:31.000Z</time>
      </trkpt>
      <trkpt lat="46.28292" lon="-0.7152">
        <ele>2</ele>
        <time>2015-05-11T08:25:40.000Z</time>
      </trkpt>
      <trkpt lat="46.283" lon="-0.71529">
        <ele>2</ele>
        <time>2015-05-11T08:25:46.000Z</time>
      </trkpt>
      <trkpt lat="46.28308" lon="-0.71538">
        <ele>2</ele>
        <time>2015-05-11T08:25:53.000Z</time>
      </trkpt>
      <trkpt lat="46.28317" lon="-0.7155">
        <ele>2</ele>
        <time>2015-05-11T08:26:01.000Z</time>
      </trkpt>
      <trkpt lat="46.28326" lon="-0.7156">
        <ele>2</ele>
        <time>2015-05-11T08:26:09.000Z</time>
      </trkpt>
      <trkpt lat="46.28331" lon="-0.71566">
        <ele>2</ele>
        <time>2015-05-11T08:26:13.000Z</time>
      </trkpt>
      <trkpt lat="46.28335" lon="-0.71573">
        <ele>2</ele>
        <time>2015-05-11T08:26:18.000Z</time>
      </trkpt>
      <trkpt lat="46.28344" lon="-0.71587">
        <ele>2</ele>
        <time>2015-05-11T08:26:27.000Z</time>
      </trkpt>
      <trkpt lat="46.28349" lon="-0.71593">
        <ele>2</ele>
        <time>2015-05-11T08:26:32.000Z</time>
      </trkpt>
      <trkpt lat="46.28358" lon="-0.71605">
        <ele>2</ele>
        <time>2015-05-11T08:26:40.000Z</time>
      </trkpt>
      <trkpt lat="46.28364" lon="-0.71617">
        <ele>2</ele>
        <time>2015-05-11T08:26:47.000Z</time>
      </trkpt>
      <trkpt lat="46.2837" lon="-0.71626">
        <ele>2</ele>
        <time>2015-05-11T08:26:53.000Z</time>
      </trkpt>
      <trkpt lat="46.28378" lon="-0.71639">
        <ele>2</ele>
        <time>2015-05-11T08:27:01.000Z</time>
      </trkpt>
      <trkpt lat="46.28384" lon="-0.7165">
        <ele>2</ele>
        <time>2015-05-11T08:27:08.000Z</time>
      </trkpt>
      <trkpt lat="46.28392" lon="-0.71662">
        <ele>2</ele>
        <time>2015-05-11T08:27:16.000Z</time>
      </trkpt>
      <trkpt lat="46.28402" lon="-0.71676">
        <ele>2</ele>
        <time>2015-05-11T08:27:25.000Z</time>
      </trkpt>
      <trkpt lat="46.28408" lon="-0.71683">
        <ele>2</ele>
        <time>2015-05-11T08:27:31.000Z</time>
      </trkpt>
      <trkpt lat="46.28417" lon="-0.71694">
        <ele>2</ele>
        <time>2015-05-11T08:27:40.000Z</time>
      </trkpt>
      <trkpt lat="46.28427" lon="-0.71703">
        <ele>2</ele>
        <time>2015-05-11T08:27:48.000Z</time>
      </trkpt>
      <trkpt lat="46.28435" lon="-0.71713">
        <ele>2</ele>
        <time>2015-05-11T08:27:56.000Z</time>
      </trkpt>
      <trkpt lat="46.28442" lon="-0.71723">
        <ele>2</ele>
        <time>2015-05-11T08:28:03.000Z</time>
      </trkpt>
      <trkpt lat="46.28443" lon="-0.71725">
        <ele>2</ele>
        <time>2015-05-11T08:28:04.000Z</time>
      </trkpt>
      <trkpt lat="46.28447" lon="-0.71731">
        <ele>2</ele>
        <time>2015-05-11T08:28:08.000Z</time>
      </trkpt>
      <trkpt lat="46.28456" lon="-0.71743">
        <ele>2</ele>
        <time>2015-05-11T08:28:16.000Z</time>
      </trkpt>
      <trkpt lat="46.28462" lon="-0.71752">
        <ele>2</ele>
        <time>2015-05-11T08:28:22.000Z</time>
      </trkpt>
      <trkpt lat="46.28463" lon="-0.71754">
        <ele>2</ele>
        <time>2015-05-11T08:28:23.000Z</time>
      </trkpt>
      <trkpt lat="46.28469" lon="-0.71761">
        <ele>2</ele>
        <time>2015-05-11T08:28:28.000Z</time>
      </trkpt>
      <trkpt lat="46.28471" lon="-0.71764">
        <ele>2</ele>
        <time>2015-05-11T08:28:30.000Z</time>
      </trkpt>
      <trkpt lat="46.28477" lon="-0.71773">
        <ele>2</ele>
        <time>2015-05-11T08:28:36.000Z</time>
      </trkpt>
      <trkpt lat="46.28487" lon="-0.71785">
        <ele>2</ele>
        <time>2015-05-11T08:28:44.000Z</time>
      </trkpt>
      <trkpt lat="46.28497" lon="-0.71797">
        <ele>2</ele>
        <time>2015-05-11T08:28:52.000Z</time>
      </trkpt>
      <trkpt lat="46.28504" lon="-0.71805">
        <ele>2</ele>
        <time>2015-05-11T08:28:58.000Z</time>
      </trkpt>
      <trkpt lat="46.28505" lon="-0.71807">
        <ele>2</ele>
        <time>2015-05-11T08:28:59.000Z</time>
      </trkpt>
      <trkpt lat="46.28514" lon="-0.71815">
        <ele>2</ele>
        <time>2015-05-11T08:29:06.000Z</time>
      </trkpt>
      <trkpt lat="46.28523" lon="-0.71821">
        <ele>2</ele>
        <time>2015-05-11T08:29:12.000Z</time>
      </trkpt>
      <trkpt lat="46.28534" lon="-0.71824">
        <ele>2.1</ele>
        <time>2015-05-11T08:29:19.000Z</time>
      </trkpt>
      <trkpt lat="46.28545" lon="-0.71822">
        <ele>2.4</ele>
        <time>2015-05-11T08:29:27.000Z</time>
      </trkpt>
      <trkpt lat="46.28548" lon="-0.71821">
        <ele>2.4</ele>
        <time>2015-05-11T08:29:29.000Z</time>
      </trkpt>
      <trkpt lat="46.28561" lon="-0.71819">
        <ele>2.5</ele>
        <time>2015-05-11T08:29:37.000Z</time>
      </trkpt>
      <trkpt lat="46.28572" lon="-0.71823">
        <ele>2.6</ele>
        <time>2015-05-11T08:29:45.000Z</time>
      </trkpt>
      <trkpt lat="46.28573" lon="-0.71824">
        <ele>2.7</ele>
        <time>2015-05-11T08:29:46.000Z</time>
      </trkpt>
      <trkpt lat="46.28578" lon="-0.7183">
        <ele>2.9</ele>
        <time>2015-05-11T08:29:51.000Z</time>
      </trkpt>
      <trkpt lat="46.28581" lon="-0.7183">
        <ele>2.9</ele>
        <time>2015-05-11T08:29:53.000Z</time>
      </trkpt>
      <trkpt lat="46.28591" lon="-0.71825">
        <ele>2.5</ele>
        <time>2015-05-11T08:30:00.000Z</time>
      </trkpt>
      <trkpt lat="46.28599" lon="-0.71825">
        <ele>2.3</ele>
        <time>2015-05-11T08:30:06.000Z</time>
      </trkpt>
      <trkpt lat="46.28607" lon="-0.71829">
        <ele>2.1</ele>
        <time>2015-05-11T08:30:12.000Z</time>
      </trkpt>
      <trkpt lat="46.28608" lon="-0.71831">
        <ele>2.1</ele>
        <time>2015-05-11T08:30:13.000Z</time>
      </trkpt>
      <trkpt lat="46.28616" lon="-0.71843">
        <ele>2</ele>
        <time>2015-05-11T08:30:21.000Z</time>
      </trkpt>
      <trkpt lat="46.28627" lon="-0.71856">
        <ele>2</ele>
        <time>2015-05-11T08:30:30.000Z</time>
      </trkpt>
      <trkpt lat="46.28637" lon="-0.71869">
        <ele>2</ele>
        <time>2015-05-11T08:30:39.000Z</time>
      </trkpt>
      <trkpt lat="46.28647" lon="-0.71882">
        <ele>2</ele>
        <time>2015-05-11T08:30:48.000Z</time>
      </trkpt>
      <trkpt lat="46.28649" lon="-0.71883">
        <ele>2</ele>
        <time>2015-05-11T08:30:49.000Z</time>
      </trkpt>
      <trkpt lat="46.28654" lon="-0.71892">
        <ele>2</ele>
        <time>2015-05-11T08:30:55.000Z</time>
      </trkpt>
      <trkpt lat="46.28662" lon="-0.71904">
        <ele>2</ele>
        <time>2015-05-11T08:31:03.000Z</time>
      </trkpt>
      <trkpt lat="46.28668" lon="-0.71918">
        <ele>2</ele>
        <time>2015-05-11T08:31:11.000Z</time>
      </trkpt>
      <trkpt lat="46.28674" lon="-0.71929">
        <ele>2</ele>
        <time>2015-05-11T08:31:18.000Z</time>
      </trkpt>
      <trkpt lat="46.2868" lon="-0.71944">
        <ele>2</ele>
        <time>2015-05-11T08:31:26.000Z</time>
      </trkpt>
      <trkpt lat="46.28685" lon="-0.71955">
        <ele>2</ele>
        <time>2015-05-11T08:31:33.000Z</time>
      </trkpt>
      <trkpt lat="46.28689" lon="-0.71962">
        <ele>2</ele>
        <time>2015-05-11T08:31:37.000Z</time>
      </trkpt>
      <trkpt lat="46.28694" lon="-0.71973">
        <ele>2</ele>
        <time>2015-05-11T08:31:44.000Z</time>
      </trkpt>
      <trkpt lat="46.28697" lon="-0.71978">
        <ele>2</ele>
        <time>2015-05-11T08:31:47.000Z</time>
      </trkpt>
      <trkpt lat="46.287" lon="-0.71984">
        <ele>2</ele>
        <time>2015-05-11T08:31:51.000Z</time>
      </trkpt>
      <trkpt lat="46.28706" lon="-0.71998">
        <ele>2</ele>
        <time>2015-05-11T08:31:59.000Z</time>
      </trkpt>
      <trkpt lat="46.28708" lon="-0.72">
        <ele>2</ele>
        <time>2015-05-11T08:32:01.000Z</time>
      </trkpt>
      <trkpt lat="46.28713" lon="-0.72009">
        <ele>2</ele>
        <time>2015-05-11T08:32:07.000Z</time>
      </trkpt>
      <trkpt lat="46.28715" lon="-0.72012">
        <ele>2</ele>
        <time>2015-05-11T08:32:09.000Z</time>
      </trkpt>
      <trkpt lat="46.28717" lon="-0.72017">
        <ele>2</ele>
        <time>2015-05-11T08:32:12.000Z</time>
      </trkpt>
      <trkpt lat="46.28724" lon="-0.7203">
        <ele>2</ele>
        <time>2015-05-11T08:32:20.000Z</time>
      </trkpt>
      <trkpt lat="46.2873" lon="-0.72049">
        <ele>2</ele>
        <time>2015-05-11T08:32:29.000Z</time>
      </trkpt>
      <trkpt lat="46.28736" lon="-0.72063">
        <ele>2</ele>
        <time>2015-05-11T08:32:36.000Z</time>
      </trkpt>
      <trkpt lat="46.28737" lon="-0.72065">
        <ele>2</ele>
        <time>2015-05-11T08:32:37.000Z</time>
      </trkpt>
      <trkpt lat="46.28746" lon="-0.72084">
        <ele>2</ele>
        <time>2015-05-11T08:32:47.000Z</time>
      </trkpt>
      <trkpt lat="46.28749" lon="-0.72089">
        <ele>2</ele>
        <time>2015-05-11T08:32:50.000Z</time>
      </trkpt>
      <trkpt lat="46.28755" lon="-0.721">
        <ele>2</ele>
        <time>2015-05-11T08:32:56.000Z</time>
      </trkpt>
      <trkpt lat="46.28759" lon="-0.7211">
        <ele>2</ele>
        <time>2015-05-11T08:33:02.000Z</time>
      </trkpt>
      <trkpt lat="46.28767" lon="-0.72126">
        <ele>2</ele>
        <time>2015-05-11T08:33:10.000Z</time>
      </trkpt>
      <trkpt lat="46.28773" lon="-0.72136">
        <ele>2</ele>
        <time>2015-05-11T08:33:16.000Z</time>
      </trkpt>
      <trkpt lat="46.28782" lon="-0.7214">
        <ele>2</ele>
        <time>2015-05-11T08:33:22.000Z</time>
      </trkpt>
      <trkpt lat="46.28791" lon="-0.72136">
        <ele>2</ele>
        <time>2015-05-11T08:33:29.000Z</time>
      </trkpt>
      <trkpt lat="46.28801" lon="-0.72128">
        <ele>2</ele>
        <time>2015-05-11T08:33:36.000Z</time>
      </trkpt>
      <trkpt lat="46.28808" lon="-0.72121">
        <ele>2</ele>
        <time>2015-05-11T08:33:42.000Z</time>
      </trkpt>
      <trkpt lat="46.28812" lon="-0.72117">
        <ele>2</ele>
        <time>2015-05-11T08:33:45.000Z</time>
      </trkpt>
      <trkpt lat="46.28821" lon="-0.72111">
        <ele>2</ele>
        <time>2015-05-11T08:33:51.000Z</time>
      </trkpt>
      <trkpt lat="46.28822" lon="-0.7211">
        <ele>2</ele>
        <time>2015-05-11T08:33:52.000Z</time>
      </trkpt>
      <trkpt lat="46.28831" lon="-0.72103">
        <ele>2</ele>
        <time>2015-05-11T08:33:59.000Z</time>
      </trkpt>
      <trkpt lat="46.28833" lon="-0.72101">
        <ele>2</ele>
        <time>2015-05-11T08:34:01.000Z</time>
      </trkpt>
      <trkpt lat="46.28844" lon="-0.72094">
        <ele>2</ele>
        <time>2015-05-11T08:34:09.000Z</time>
      </trkpt>
      <trkpt lat="46.28846" lon="-0.72092">
        <ele>2</ele>
        <time>2015-05-11T08:34:11.000Z</time>
      </trkpt>
      <trkpt lat="46.28854" lon="-0.72086">
        <ele>2</ele>
        <time>2015-05-11T08:34:17.000Z</time>
      </trkpt>
      <trkpt lat="46.28865" lon="-0.72078">
        <ele>2</ele>
        <time>2015-05-11T08:34:25.000Z</time>
      </trkpt>
      <trkpt lat="46.28871" lon="-0.72071">
        <ele>2</ele>
        <time>2015-05-11T08:34:31.000Z</time>
      </trkpt>
      <trkpt lat="46.28875" lon="-0.72066">
        <ele>2</ele>
        <time>2015-05-11T08:34:34.000Z</time>
      </trkpt>
      <trkpt lat="46.28885" lon="-0.72052">
        <ele>2</ele>
        <time>2015-05-11T08:34:43.000Z</time>
      </trkpt>
      <trkpt lat="46.28888" lon="-0.72049">
        <ele>2</ele>
        <time>2015-05-11T08:34:45.000Z</time>
      </trkpt>
      <trkpt lat="46.28895" lon="-0.72037">
        <ele>2</ele>
        <time>2015-05-11T08:34:52.000Z</time>
      </trkpt>
      <trkpt lat="46.289" lon="-0.72029">
        <ele>2</ele>
        <time>2015-05-11T08:34:57.000Z</time>
      </trkpt>
      <trkpt lat="46.28908" lon="-0.72017">
        <ele>2</ele>
        <time>2015-05-11T08:35:04.000Z</time>
      </trkpt>
      <trkpt lat="46.28909" lon="-0.72015">
        <ele>2</ele>
        <time>2015-05-11T08:35:05.000Z</time>
      </trkpt>
      <trkpt lat="46.28915" lon="-0.72005">
        <ele>2</ele>
        <time>2015-05-11T08:35:11.000Z</time>
      </trkpt>
      <trkpt lat="46.28916" lon="-0.72004">
        <ele>2</ele>
        <time>2015-05-11T08:35:12.000Z</time>
      </trkpt>
      <trkpt lat="46.28916" lon="-0.72002">
        <ele>2</ele>
        <time>2015-05-11T08:35:13.000Z</time>
      </trkpt>
      <trkpt lat="46.28923" lon="-0.71993">
        <ele>2</ele>
        <time>2015-05-11T08:35:19.000Z</time>
      </trkpt>
      <trkpt lat="46.28932" lon="-0.71989">
        <ele>2</ele>
        <time>2015-05-11T08:35:26.000Z</time>
      </trkpt>
      <trkpt lat="46.28935" lon="-0.7199">
        <ele>2</ele>
        <time>2015-05-11T08:35:29.000Z</time>
      </trkpt>
      <trkpt lat="46.28943" lon="-0.71998">
        <ele>2</ele>
        <time>2015-05-11T08:35:37.000Z</time>
      </trkpt>
      <trkpt lat="46.28944" lon="-0.71999">
        <ele>2</ele>
        <time>2015-05-11T08:35:38.000Z</time>
      </trkpt>
      <trkpt lat="46.28949" lon="-0.72006">
        <ele>2</ele>
        <time>2015-05-11T08:35:43.000Z</time>
      </trkpt>
      <trkpt lat="46.28953" lon="-0.72012">
        <ele>2</ele>
        <time>2015-05-11T08:35:48.000Z</time>
      </trkpt>
      <trkpt lat="46.28959" lon="-0.72021">
        <ele>2</ele>
        <time>2015-05-11T08:35:54.000Z</time>
      </trkpt>
      <trkpt lat="46.28965" lon="-0.72035">
        <ele>2</ele>
        <time>2015-05-11T08:36:01.000Z</time>
      </trkpt>
      <trkpt lat="46.28972" lon="-0.72049">
        <ele>2</ele>
        <time>2015-05-11T08:36:09.000Z</time>
      </trkpt>
      <trkpt lat="46.2898" lon="-0.72066">
        <ele>2</ele>
        <time>2015-05-11T08:36:18.000Z</time>
      </trkpt>
      <trkpt lat="46.28985" lon="-0.72076">
        <ele>2</ele>
        <time>2015-05-11T08:36:24.000Z</time>
      </trkpt>
      <trkpt lat="46.28991" lon="-0.72088">
        <ele>2</ele>
        <time>2015-05-11T08:36:31.000Z</time>
      </trkpt>
      <trkpt lat="46.29001" lon="-0.72102">
        <ele>2</ele>
        <time>2015-05-11T08:36:40.000Z</time>
      </trkpt>
      <trkpt lat="46.29005" lon="-0.7211">
        <ele>2</ele>
        <time>2015-05-11T08:36:45.000Z</time>
      </trkpt>
      <trkpt lat="46.29012" lon="-0.72119">
        <ele>2</ele>
        <time>2015-05-11T08:36:52.000Z</time>
      </trkpt>
      <trkpt lat="46.29013" lon="-0.72123">
        <ele>2</ele>
        <time>2015-05-11T08:36:54.000Z</time>
      </trkpt>
      <trkpt lat="46.29024" lon="-0.72137">
        <ele>2</ele>
        <time>2015-05-11T08:37:04.000Z</time>
      </trkpt>
      <trkpt lat="46.29031" lon="-0.72146">
        <ele>2</ele>
        <time>2015-05-11T08:37:11.000Z</time>
      </trkpt>
      <trkpt lat="46.29037" lon="-0.72157">
        <ele>2.2</ele>
        <time>2015-05-11T08:37:18.000Z</time>
      </trkpt>
      <trkpt lat="46.29045" lon="-0.72168">
        <ele>2.6</ele>
        <time>2015-05-11T08:37:28.000Z</time>
      </trkpt>
      <trkpt lat="46.2905" lon="-0.72178">
        <ele>2.5</ele>
        <time>2015-05-11T08:37:38.000Z</time>
      </trkpt>
      <trkpt lat="46.29054" lon="-0.72184">
        <ele>2.4</ele>
        <time>2015-05-11T08:37:44.000Z</time>
      </trkpt>
      <trkpt lat="46.29059" lon="-0.72192">
        <ele>2.1</ele>
        <time>2015-05-11T08:37:50.000Z</time>
      </trkpt>
      <trkpt lat="46.29062" lon="-0.72196">
        <ele>2</ele>
        <time>2015-05-11T08:37:54.000Z</time>
      </trkpt>
      <trkpt lat="46.29068" lon="-0.72205">
        <ele>2</ele>
        <time>2015-05-11T08:38:02.000Z</time>
      </trkpt>
      <trkpt lat="46.29069" lon="-0.72207">
        <ele>2</ele>
        <time>2015-05-11T08:38:03.000Z</time>
      </trkpt>
      <trkpt lat="46.29071" lon="-0.72212">
        <ele>2</ele>
        <time>2015-05-11T08:38:07.000Z</time>
      </trkpt>
      <trkpt lat="46.29074" lon="-0.72218">
        <ele>2</ele>
        <time>2015-05-11T08:38:11.000Z</time>
      </trkpt>
      <trkpt lat="46.29077" lon="-0.72224">
        <ele>2</ele>
        <time>2015-05-11T08:38:15.000Z</time>
      </trkpt>
      <trkpt lat="46.29082" lon="-0.72237">
        <ele>2</ele>
        <time>2015-05-11T08:38:22.000Z</time>
      </trkpt>
      <trkpt lat="46.29082" lon="-0.72238">
        <ele>2</ele>
        <time>2015-05-11T08:38:23.000Z</time>
      </trkpt>
      <trkpt lat="46.29087" lon="-0.7225">
        <ele>2</ele>
        <time>2015-05-11T08:38:30.000Z</time>
      </trkpt>
      <trkpt lat="46.29093" lon="-0.72262">
        <ele>2</ele>
        <time>2015-05-11T08:38:38.000Z</time>
      </trkpt>
      <trkpt lat="46.29097" lon="-0.72274">
        <ele>2</ele>
        <time>2015-05-11T08:38:45.000Z</time>
      </trkpt>
      <trkpt lat="46.29102" lon="-0.72286">
        <ele>2</ele>
        <time>2015-05-11T08:38:53.000Z</time>
      </trkpt>
      <trkpt lat="46.29109" lon="-0.72291">
        <ele>2</ele>
        <time>2015-05-11T08:38:59.000Z</time>
      </trkpt>
      <trkpt lat="46.2911" lon="-0.72292">
        <ele>2</ele>
        <time>2015-05-11T08:39:00.000Z</time>
      </trkpt>
      <trkpt lat="46.29118" lon="-0.72302">
        <ele>2</ele>
        <time>2015-05-11T08:39:08.000Z</time>
      </trkpt>
      <trkpt lat="46.2912" lon="-0.72303">
        <ele>2</ele>
        <time>2015-05-11T08:39:10.000Z</time>
      </trkpt>
      <trkpt lat="46.29122" lon="-0.72307">
        <ele>2</ele>
        <time>2015-05-11T08:39:13.000Z</time>
      </trkpt>
      <trkpt lat="46.29124" lon="-0.72313">
        <ele>2</ele>
        <time>2015-05-11T08:39:16.000Z</time>
      </trkpt>
      <trkpt lat="46.29128" lon="-0.72327">
        <ele>2</ele>
        <time>2015-05-11T08:39:22.000Z</time>
      </trkpt>
      <trkpt lat="46.29134" lon="-0.72342">
        <ele>2</ele>
        <time>2015-05-11T08:39:29.000Z</time>
      </trkpt>
      <trkpt lat="46.29138" lon="-0.72354">
        <ele>2</ele>
        <time>2015-05-11T08:39:35.000Z</time>
      </trkpt>
      <trkpt lat="46.29141" lon="-0.72365">
        <ele>2</ele>
        <time>2015-05-11T08:39:40.000Z</time>
      </trkpt>
      <trkpt lat="46.29147" lon="-0.7238">
        <ele>2</ele>
        <time>2015-05-11T08:39:48.000Z</time>
      </trkpt>
      <trkpt lat="46.2915" lon="-0.72392">
        <ele>2</ele>
        <time>2015-05-11T08:39:54.000Z</time>
      </trkpt>
      <trkpt lat="46.29157" lon="-0.72409">
        <ele>2</ele>
        <time>2015-05-11T08:40:03.000Z</time>
      </trkpt>
      <trkpt lat="46.29158" lon="-0.72411">
        <ele>2</ele>
        <time>2015-05-11T08:40:04.000Z</time>
      </trkpt>
      <trkpt lat="46.29164" lon="-0.72423">
        <ele>2</ele>
        <time>2015-05-11T08:40:12.000Z</time>
      </trkpt>
      <trkpt lat="46.29173" lon="-0.72433">
        <ele>2</ele>
        <time>2015-05-11T08:40:20.000Z</time>
      </trkpt>
      <trkpt lat="46.2918" lon="-0.72441">
        <ele>2</ele>
        <time>2015-05-11T08:40:27.000Z</time>
      </trkpt>
      <trkpt lat="46.29187" lon="-0.7245">
        <ele>2</ele>
        <time>2015-05-11T08:40:34.000Z</time>
      </trkpt>
      <trkpt lat="46.29196" lon="-0.72459">
        <ele>2</ele>
        <time>2015-05-11T08:40:41.000Z</time>
      </trkpt>
      <trkpt lat="46.29203" lon="-0.72465">
        <ele>2</ele>
        <time>2015-05-11T08:40:47.000Z</time>
      </trkpt>
      <trkpt lat="46.29208" lon="-0.72469">
        <ele>2</ele>
        <time>2015-05-11T08:40:51.000Z</time>
      </trkpt>
      <trkpt lat="46.29212" lon="-0.72474">
        <ele>2</ele>
        <time>2015-05-11T08:40:55.000Z</time>
      </trkpt>
      <trkpt lat="46.29226" lon="-0.7249">
        <ele>2</ele>
        <time>2015-05-11T08:41:06.000Z</time>
      </trkpt>
      <trkpt lat="46.29234" lon="-0.72504">
        <ele>2</ele>
        <time>2015-05-11T08:41:15.000Z</time>
      </trkpt>
      <trkpt lat="46.29241" lon="-0.72515">
        <ele>2</ele>
        <time>2015-05-11T08:41:22.000Z</time>
      </trkpt>
      <trkpt lat="46.29243" lon="-0.72518">
        <ele>2</ele>
        <time>2015-05-11T08:41:24.000Z</time>
      </trkpt>
      <trkpt lat="46.29251" lon="-0.7253">
        <ele>2</ele>
        <time>2015-05-11T08:41:32.000Z</time>
      </trkpt>
      <trkpt lat="46.2926" lon="-0.72541">
        <ele>2</ele>
        <time>2015-05-11T08:41:40.000Z</time>
      </trkpt>
      <trkpt lat="46.29264" lon="-0.72547">
        <ele>2</ele>
        <time>2015-05-11T08:41:44.000Z</time>
      </trkpt>
      <trkpt lat="46.29268" lon="-0.72558">
        <ele>2.1</ele>
        <time>2015-05-11T08:41:50.000Z</time>
      </trkpt>
      <trkpt lat="46.29269" lon="-0.72565">
        <ele>2.2</ele>
        <time>2015-05-11T08:41:53.000Z</time>
      </trkpt>
      <trkpt lat="46.29272" lon="-0.72572">
        <ele>2.5</ele>
        <time>2015-05-11T08:41:57.000Z</time>
      </trkpt>
      <trkpt lat="46.29279" lon="-0.72582">
        <ele>2.9</ele>
        <time>2015-05-11T08:42:04.000Z</time>
      </trkpt>
      <trkpt lat="46.29285" lon="-0.72587">
        <ele>2.6</ele>
        <time>2015-05-11T08:42:10.000Z</time>
      </trkpt>
      <trkpt lat="46.29292" lon="-0.72599">
        <ele>2.2</ele>
        <time>2015-05-11T08:42:17.000Z</time>
      </trkpt>
      <trkpt lat="46.29297" lon="-0.72607">
        <ele>2</ele>
        <time>2015-05-11T08:42:22.000Z</time>
      </trkpt>
      <trkpt lat="46.29304" lon="-0.72613">
        <ele>2</ele>
        <time>2015-05-11T08:42:27.000Z</time>
      </trkpt>
      <trkpt lat="46.29309" lon="-0.72624">
        <ele>2.1</ele>
        <time>2015-05-11T08:42:34.000Z</time>
      </trkpt>
      <trkpt lat="46.2931" lon="-0.72626">
        <ele>2.1</ele>
        <time>2015-05-11T08:42:35.000Z</time>
      </trkpt>
      <trkpt lat="46.29315" lon="-0.72637">
        <ele>2</ele>
        <time>2015-05-11T08:42:41.000Z</time>
      </trkpt>
      <trkpt lat="46.29317" lon="-0.7264">
        <ele>2</ele>
        <time>2015-05-11T08:42:43.000Z</time>
      </trkpt>
      <trkpt lat="46.29324" lon="-0.72652">
        <ele>2</ele>
        <time>2015-05-11T08:42:51.000Z</time>
      </trkpt>
      <trkpt lat="46.29332" lon="-0.7266">
        <ele>2</ele>
        <time>2015-05-11T08:42:58.000Z</time>
      </trkpt>
      <trkpt lat="46.29339" lon="-0.72668">
        <ele>2</ele>
        <time>2015-05-11T08:43:04.000Z</time>
      </trkpt>
      <trkpt lat="46.29345" lon="-0.72678">
        <ele>2</ele>
        <time>2015-05-11T08:43:11.000Z</time>
      </trkpt>
      <trkpt lat="46.29346" lon="-0.7268">
        <ele>2</ele>
        <time>2015-05-11T08:43:12.000Z</time>
      </trkpt>
      <trkpt lat="46.29351" lon="-0.72685">
        <ele>2</ele>
        <time>2015-05-11T08:43:16.000Z</time>
      </trkpt>
      <trkpt lat="46.29353" lon="-0.72687">
        <ele>2</ele>
        <time>2015-05-11T08:43:18.000Z</time>
      </trkpt>
      <trkpt lat="46.29369" lon="-0.72705">
        <ele>2.2</ele>
        <time>2015-05-11T08:43:33.000Z</time>
      </trkpt>
      <trkpt lat="46.29376" lon="-0.72714">
        <ele>2.2</ele>
        <time>2015-05-11T08:43:39.000Z</time>
      </trkpt>
      <trkpt lat="46.29384" lon="-0.72726">
        <ele>2</ele>
        <time>2015-05-11T08:43:46.000Z</time>
      </trkpt>
      <trkpt lat="46.29394" lon="-0.72735">
        <ele>2</ele>
        <time>2015-05-11T08:43:54.000Z</time>
      </trkpt>
      <trkpt lat="46.294" lon="-0.72735">
        <ele>2</ele>
        <time>2015-05-11T08:43:58.000Z</time>
      </trkpt>
      <trkpt lat="46.29409" lon="-0.7273">
        <ele>2</ele>
        <time>2015-05-11T08:44:05.000Z</time>
      </trkpt>
      <trkpt lat="46.29417" lon="-0.72721">
        <ele>2</ele>
        <time>2015-05-11T08:44:12.000Z</time>
      </trkpt>
      <trkpt lat="46.29428" lon="-0.7271">
        <ele>2.3</ele>
        <time>2015-05-11T08:44:20.000Z</time>
      </trkpt>
      <trkpt lat="46.29439" lon="-0.72701">
        <ele>2.2</ele>
        <time>2015-05-11T08:44:28.000Z</time>
      </trkpt>
      <trkpt lat="46.29448" lon="-0.72693">
        <ele>2</ele>
        <time>2015-05-11T08:44:35.000Z</time>
      </trkpt>
      <trkpt lat="46.29458" lon="-0.72684">
        <ele>2.2</ele>
        <time>2015-05-11T08:44:43.000Z</time>
      </trkpt>
      <trkpt lat="46.29465" lon="-0.72676">
        <ele>2.2</ele>
        <time>2015-05-11T08:44:49.000Z</time>
      </trkpt>
      <trkpt lat="46.29473" lon="-0.72666">
        <ele>2</ele>
        <time>2015-05-11T08:44:56.000Z</time>
      </trkpt>
      <trkpt lat="46.29481" lon="-0.72656">
        <ele>2</ele>
        <time>2015-05-11T08:45:03.000Z</time>
      </trkpt>
      <trkpt lat="46.29484" lon="-0.72654">
        <ele>2</ele>
        <time>2015-05-11T08:45:05.000Z</time>
      </trkpt>
      <trkpt lat="46.29492" lon="-0.72653">
        <ele>2</ele>
        <time>2015-05-11T08:45:11.000Z</time>
      </trkpt>
      <trkpt lat="46.29504" lon="-0.72659">
        <ele>2.2</ele>
        <time>2015-05-11T08:45:20.000Z</time>
      </trkpt>
      <trkpt lat="46.29512" lon="-0.72667">
        <ele>2.4</ele>
        <time>2015-05-11T08:45:27.000Z</time>
      </trkpt>
      <trkpt lat="46.29533" lon="-0.72686">
        <ele>2.3</ele>
        <time>2015-05-11T08:45:44.000Z</time>
      </trkpt>
      <trkpt lat="46.29543" lon="-0.72692">
        <ele>2.1</ele>
        <time>2015-05-11T08:45:52.000Z</time>
      </trkpt>
      <trkpt lat="46.29557" lon="-0.72699">
        <ele>2</ele>
        <time>2015-05-11T08:46:02.000Z</time>
      </trkpt>
      <trkpt lat="46.29565" lon="-0.72707">
        <ele>2.2</ele>
        <time>2015-05-11T08:46:09.000Z</time>
      </trkpt>
      <trkpt lat="46.29573" lon="-0.72711">
        <ele>2.4</ele>
        <time>2015-05-11T08:46:15.000Z</time>
      </trkpt>
      <trkpt lat="46.29574" lon="-0.72712">
        <ele>2.4</ele>
        <time>2015-05-11T08:46:16.000Z</time>
      </trkpt>
      <trkpt lat="46.2958" lon="-0.72721">
        <ele>2.9</ele>
        <time>2015-05-11T08:46:23.000Z</time>
      </trkpt>
      <trkpt lat="46.29585" lon="-0.72726">
        <ele>2.8</ele>
        <time>2015-05-11T08:46:27.000Z</time>
      </trkpt>
      <trkpt lat="46.29596" lon="-0.72735">
        <ele>2.3</ele>
        <time>2015-05-11T08:46:35.000Z</time>
      </trkpt>
      <trkpt lat="46.29605" lon="-0.72742">
        <ele>2.1</ele>
        <time>2015-05-11T08:46:42.000Z</time>
      </trkpt>
      <trkpt lat="46.29616" lon="-0.7274">
        <ele>2.1</ele>
        <time>2015-05-11T08:46:50.000Z</time>
      </trkpt>
      <trkpt lat="46.29628" lon="-0.72731">
        <ele>2.4</ele>
        <time>2015-05-11T08:46:59.000Z</time>
      </trkpt>
      <trkpt lat="46.29634" lon="-0.72725">
        <ele>2.7</ele>
        <time>2015-05-11T08:47:06.000Z</time>
      </trkpt>
      <trkpt lat="46.29634" lon="-0.72726">
        <ele>2.7</ele>
        <time>2015-05-11T08:47:13.000Z</time>
      </trkpt>
      <trkpt lat="46.29635" lon="-0.72725">
        <ele>2.8</ele>
        <time>2015-05-11T08:47:26.000Z</time>
      </trkpt>
      <trkpt lat="46.29636" lon="-0.72727">
        <ele>2.7</ele>
        <time>2015-05-11T08:49:07.000Z</time>
      </trkpt>
      <trkpt lat="46.29631" lon="-0.72723">
        <ele>2.7</ele>
        <time>2015-05-11T08:50:10.000Z</time>
      </trkpt>
      <trkpt lat="46.29629" lon="-0.72729">
        <ele>2.5</ele>
        <time>2015-05-11T08:50:15.000Z</time>
      </trkpt>
      <trkpt lat="46.29629" lon="-0.72732">
        <ele>2.4</ele>
        <time>2015-05-11T08:50:21.000Z</time>
      </trkpt>
      <trkpt lat="46.29629" lon="-0.72734">
        <ele>2.4</ele>
        <time>2015-05-11T08:50:45.000Z</time>
      </trkpt>
      <trkpt lat="46.29629" lon="-0.72733">
        <ele>2.4</ele>
        <time>2015-05-11T08:51:08.000Z</time>
      </trkpt>
      <trkpt lat="46.29631" lon="-0.72729">
        <ele>2.6</ele>
        <time>2015-05-11T08:51:24.000Z</time>
      </trkpt>
      <trkpt lat="46.29632" lon="-0.72726">
        <ele>2.7</ele>
        <time>2015-05-11T08:51:29.000Z</time>
      </trkpt>
      <trkpt lat="46.29635" lon="-0.72723">
        <ele>2.9</ele>
        <time>2015-05-11T08:51:35.000Z</time>
      </trkpt>
      <trkpt lat="46.29636" lon="-0.72723">
        <ele>2.9</ele>
        <time>2015-05-11T08:51:44.000Z</time>
      </trkpt>
      <trkpt lat="46.29641" lon="-0.72718">
        <ele>2.9</ele>
        <time>2015-05-11T08:51:57.000Z</time>
      </trkpt>
      <trkpt lat="46.29645" lon="-0.72713">
        <ele>2.8</ele>
        <time>2015-05-11T08:52:02.000Z</time>
      </trkpt>
      <trkpt lat="46.29652" lon="-0.72706">
        <ele>2.7</ele>
        <time>2015-05-11T08:52:08.000Z</time>
      </trkpt>
      <trkpt lat="46.29661" lon="-0.72699">
        <ele>2.8</ele>
        <time>2015-05-11T08:52:15.000Z</time>
      </trkpt>
      <trkpt lat="46.29671" lon="-0.7269">
        <ele>3</ele>
        <time>2015-05-11T08:52:23.000Z</time>
      </trkpt>
      <trkpt lat="46.29678" lon="-0.72682">
        <ele>3</ele>
        <time>2015-05-11T08:52:30.000Z</time>
      </trkpt>
      <trkpt lat="46.29688" lon="-0.72674">
        <ele>3</ele>
        <time>2015-05-11T08:52:38.000Z</time>
      </trkpt>
      <trkpt lat="46.29698" lon="-0.72663">
        <ele>2.9</ele>
        <time>2015-05-11T08:52:47.000Z</time>
      </trkpt>
      <trkpt lat="46.29705" lon="-0.72655">
        <ele>2.7</ele>
        <time>2015-05-11T08:52:53.000Z</time>
      </trkpt>
      <trkpt lat="46.29712" lon="-0.72648">
        <ele>2.7</ele>
        <time>2015-05-11T08:53:00.000Z</time>
      </trkpt>
      <trkpt lat="46.29721" lon="-0.72639">
        <ele>3</ele>
        <time>2015-05-11T08:53:08.000Z</time>
      </trkpt>
      <trkpt lat="46.29729" lon="-0.72635">
        <ele>3</ele>
        <time>2015-05-11T08:53:13.000Z</time>
      </trkpt>
      <trkpt lat="46.29734" lon="-0.72633">
        <ele>3</ele>
        <time>2015-05-11T08:53:16.000Z</time>
      </trkpt>
      <trkpt lat="46.29738" lon="-0.72619">
        <ele>3</ele>
        <time>2015-05-11T08:53:23.000Z</time>
      </trkpt>
      <trkpt lat="46.29736" lon="-0.72607">
        <ele>2.9</ele>
        <time>2015-05-11T08:53:30.000Z</time>
      </trkpt>
      <trkpt lat="46.29736" lon="-0.72605">
        <ele>2.9</ele>
        <time>2015-05-11T08:53:31.000Z</time>
      </trkpt>
      <trkpt lat="46.29736" lon="-0.72594">
        <ele>2.7</ele>
        <time>2015-05-11T08:53:37.000Z</time>
      </trkpt>
      <trkpt lat="46.29736" lon="-0.72592">
        <ele>2.7</ele>
        <time>2015-05-11T08:53:38.000Z</time>
      </trkpt>
      <trkpt lat="46.29735" lon="-0.72585">
        <ele>2.6</ele>
        <time>2015-05-11T08:53:42.000Z</time>
      </trkpt>
      <trkpt lat="46.29733" lon="-0.7257">
        <ele>2.5</ele>
        <time>2015-05-11T08:53:49.000Z</time>
      </trkpt>
      <trkpt lat="46.29732" lon="-0.72561">
        <ele>2.4</ele>
        <time>2015-05-11T08:53:53.000Z</time>
      </trkpt>
      <trkpt lat="46.29726" lon="-0.72536">
        <ele>2.1</ele>
        <time>2015-05-11T08:54:05.000Z</time>
      </trkpt>
      <trkpt lat="46.29721" lon="-0.72518">
        <ele>2.4</ele>
        <time>2015-05-11T08:54:14.000Z</time>
      </trkpt>
      <trkpt lat="46.29716" lon="-0.72503">
        <ele>2.9</ele>
        <time>2015-05-11T08:54:22.000Z</time>
      </trkpt>
      <trkpt lat="46.2971" lon="-0.72485">
        <ele>2.8</ele>
        <time>2015-05-11T08:54:31.000Z</time>
      </trkpt>
      <trkpt lat="46.29704" lon="-0.72465">
        <ele>2.5</ele>
        <time>2015-05-11T08:54:41.000Z</time>
      </trkpt>
      <trkpt lat="46.29697" lon="-0.72448">
        <ele>2.9</ele>
        <time>2015-05-11T08:54:50.000Z</time>
      </trkpt>
      <trkpt lat="46.29691" lon="-0.72434">
        <ele>2.9</ele>
        <time>2015-05-11T08:54:58.000Z</time>
      </trkpt>
      <trkpt lat="46.29688" lon="-0.72423">
        <ele>2.8</ele>
        <time>2015-05-11T08:55:04.000Z</time>
      </trkpt>
      <trkpt lat="46.29684" lon="-0.7241">
        <ele>2.6</ele>
        <time>2015-05-11T08:55:11.000Z</time>
      </trkpt>
      <trkpt lat="46.29682" lon="-0.724">
        <ele>2.5</ele>
        <time>2015-05-11T08:55:17.000Z</time>
      </trkpt>
      <trkpt lat="46.29679" lon="-0.72386">
        <ele>2.4</ele>
        <time>2015-05-11T08:55:24.000Z</time>
      </trkpt>
      <trkpt lat="46.29675" lon="-0.72376">
        <ele>2.3</ele>
        <time>2015-05-11T08:55:30.000Z</time>
      </trkpt>
      <trkpt lat="46.29674" lon="-0.72372">
        <ele>2.3</ele>
        <time>2015-05-11T08:55:32.000Z</time>
      </trkpt>
      <trkpt lat="46.2967" lon="-0.72361">
        <ele>2.1</ele>
        <time>2015-05-11T08:55:38.000Z</time>
      </trkpt>
      <trkpt lat="46.29668" lon="-0.72356">
        <ele>2.2</ele>
        <time>2015-05-11T08:55:41.000Z</time>
      </trkpt>
      <trkpt lat="46.29664" lon="-0.72345">
        <ele>2.6</ele>
        <time>2015-05-11T08:55:47.000Z</time>
      </trkpt>
      <trkpt lat="46.29656" lon="-0.72334">
        <ele>3</ele>
        <time>2015-05-11T08:55:54.000Z</time>
      </trkpt>
      <trkpt lat="46.29655" lon="-0.72333">
        <ele>3</ele>
        <time>2015-05-11T08:55:55.000Z</time>
      </trkpt>
      <trkpt lat="46.29647" lon="-0.72328">
        <ele>3</ele>
        <time>2015-05-11T08:56:00.000Z</time>
      </trkpt>
      <trkpt lat="46.2964" lon="-0.72323">
        <ele>3</ele>
        <time>2015-05-11T08:56:05.000Z</time>
      </trkpt>
      <trkpt lat="46.29639" lon="-0.72321">
        <ele>3</ele>
        <time>2015-05-11T08:56:06.000Z</time>
      </trkpt>
      <trkpt lat="46.29636" lon="-0.72311">
        <ele>2.9</ele>
        <time>2015-05-11T08:56:11.000Z</time>
      </trkpt>
      <trkpt lat="46.29635" lon="-0.72309">
        <ele>2.9</ele>
        <time>2015-05-11T08:56:12.000Z</time>
      </trkpt>
      <trkpt lat="46.29631" lon="-0.72292">
        <ele>2.5</ele>
        <time>2015-05-11T08:56:20.000Z</time>
      </trkpt>
      <trkpt lat="46.29626" lon="-0.72278">
        <ele>2.5</ele>
        <time>2015-05-11T08:56:27.000Z</time>
      </trkpt>
      <trkpt lat="46.29619" lon="-0.72262">
        <ele>2.7</ele>
        <time>2015-05-11T08:56:35.000Z</time>
      </trkpt>
      <trkpt lat="46.2961" lon="-0.72249">
        <ele>3</ele>
        <time>2015-05-11T08:56:43.000Z</time>
      </trkpt>
      <trkpt lat="46.29605" lon="-0.7224">
        <ele>2.8</ele>
        <time>2015-05-11T08:56:49.000Z</time>
      </trkpt>
      <trkpt lat="46.29598" lon="-0.72227">
        <ele>2.5</ele>
        <time>2015-05-11T08:56:57.000Z</time>
      </trkpt>
      <trkpt lat="46.29592" lon="-0.72215">
        <ele>2.5</ele>
        <time>2015-05-11T08:57:04.000Z</time>
      </trkpt>
      <trkpt lat="46.29586" lon="-0.72204">
        <ele>2.7</ele>
        <time>2015-05-11T08:57:10.000Z</time>
      </trkpt>
      <trkpt lat="46.29575" lon="-0.7219">
        <ele>2.7</ele>
        <time>2015-05-11T08:57:19.000Z</time>
      </trkpt>
      <trkpt lat="46.29568" lon="-0.7218">
        <ele>2.5</ele>
        <time>2015-05-11T08:57:26.000Z</time>
      </trkpt>
      <trkpt lat="46.29559" lon="-0.72166">
        <ele>2.1</ele>
        <time>2015-05-11T08:57:35.000Z</time>
      </trkpt>
      <trkpt lat="46.29553" lon="-0.72158">
        <ele>2.3</ele>
        <time>2015-05-11T08:57:40.000Z</time>
      </trkpt>
      <trkpt lat="46.2955" lon="-0.72152">
        <ele>2.4</ele>
        <time>2015-05-11T08:57:44.000Z</time>
      </trkpt>
      <trkpt lat="46.29541" lon="-0.72138">
        <ele>2.5</ele>
        <time>2015-05-11T08:57:53.000Z</time>
      </trkpt>
      <trkpt lat="46.29532" lon="-0.72124">
        <ele>2.6</ele>
        <time>2015-05-11T08:58:02.000Z</time>
      </trkpt>
      <trkpt lat="46.29525" lon="-0.72113">
        <ele>2.9</ele>
        <time>2015-05-11T08:58:09.000Z</time>
      </trkpt>
      <trkpt lat="46.29517" lon="-0.72099">
        <ele>2.6</ele>
        <time>2015-05-11T08:58:18.000Z</time>
      </trkpt>
      <trkpt lat="46.29508" lon="-0.72086">
        <ele>2.3</ele>
        <time>2015-05-11T08:58:26.000Z</time>
      </trkpt>
      <trkpt lat="46.295" lon="-0.72073">
        <ele>2.4</ele>
        <time>2015-05-11T08:58:34.000Z</time>
      </trkpt>
      <trkpt lat="46.2949" lon="-0.72061">
        <ele>2.9</ele>
        <time>2015-05-11T08:58:43.000Z</time>
      </trkpt>
      <trkpt lat="46.29489" lon="-0.72059">
        <ele>2.9</ele>
        <time>2015-05-11T08:58:44.000Z</time>
      </trkpt>
      <trkpt lat="46.29488" lon="-0.72057">
        <ele>3</ele>
        <time>2015-05-11T08:58:46.000Z</time>
      </trkpt>
      <trkpt lat="46.29483" lon="-0.72049">
        <ele>3</ele>
        <time>2015-05-11T08:58:52.000Z</time>
      </trkpt>
      <trkpt lat="46.29481" lon="-0.72047">
        <ele>3</ele>
        <time>2015-05-11T08:58:53.000Z</time>
      </trkpt>
      <trkpt lat="46.29474" lon="-0.72036">
        <ele>3</ele>
        <time>2015-05-11T08:59:00.000Z</time>
      </trkpt>
      <trkpt lat="46.29471" lon="-0.72032">
        <ele>2.9</ele>
        <time>2015-05-11T08:59:03.000Z</time>
      </trkpt>
      <trkpt lat="46.29464" lon="-0.72023">
        <ele>2.7</ele>
        <time>2015-05-11T08:59:09.000Z</time>
      </trkpt>
      <trkpt lat="46.29462" lon="-0.7202">
        <ele>2.6</ele>
        <time>2015-05-11T08:59:11.000Z</time>
      </trkpt>
      <trkpt lat="46.29456" lon="-0.72011">
        <ele>2.4</ele>
        <time>2015-05-11T08:59:18.000Z</time>
      </trkpt>
      <trkpt lat="46.29451" lon="-0.72004">
        <ele>2.3</ele>
        <time>2015-05-11T08:59:22.000Z</time>
      </trkpt>
      <trkpt lat="46.29443" lon="-0.71992">
        <ele>2.3</ele>
        <time>2015-05-11T08:59:29.000Z</time>
      </trkpt>
      <trkpt lat="46.29435" lon="-0.71982">
        <ele>2.4</ele>
        <time>2015-05-11T08:59:36.000Z</time>
      </trkpt>
      <trkpt lat="46.29433" lon="-0.7198">
        <ele>2.4</ele>
        <time>2015-05-11T08:59:38.000Z</time>
      </trkpt>
      <trkpt lat="46.29424" lon="-0.71967">
        <ele>2.4</ele>
        <time>2015-05-11T08:59:46.000Z</time>
      </trkpt>
      <trkpt lat="46.29418" lon="-0.71961">
        <ele>2.4</ele>
        <time>2015-05-11T08:59:51.000Z</time>
      </trkpt>
      <trkpt lat="46.29411" lon="-0.71952">
        <ele>2.6</ele>
        <time>2015-05-11T08:59:57.000Z</time>
      </trkpt>
      <trkpt lat="46.29402" lon="-0.71941">
        <ele>2.6</ele>
        <time>2015-05-11T09:00:05.000Z</time>
      </trkpt>
      <trkpt lat="46.29398" lon="-0.71933">
        <ele>2.6</ele>
        <time>2015-05-11T09:00:10.000Z</time>
      </trkpt>
      <trkpt lat="46.29395" lon="-0.71929">
        <ele>2.6</ele>
        <time>2015-05-11T09:00:13.000Z</time>
      </trkpt>
      <trkpt lat="46.29388" lon="-0.7192">
        <ele>2.9</ele>
        <time>2015-05-11T09:00:19.000Z</time>
      </trkpt>
      <trkpt lat="46.29383" lon="-0.71912">
        <ele>2.9</ele>
        <time>2015-05-11T09:00:24.000Z</time>
      </trkpt>
      <trkpt lat="46.29381" lon="-0.71904">
        <ele>2.7</ele>
        <time>2015-05-11T09:00:28.000Z</time>
      </trkpt>
      <trkpt lat="46.29382" lon="-0.71897">
        <ele>2.5</ele>
        <time>2015-05-11T09:00:32.000Z</time>
      </trkpt>
      <trkpt lat="46.29383" lon="-0.71894">
        <ele>2.3</ele>
        <time>2015-05-11T09:00:35.000Z</time>
      </trkpt>
      <trkpt lat="46.29386" lon="-0.71892">
        <ele>2.2</ele>
        <time>2015-05-11T09:00:39.000Z</time>
      </trkpt>
      <trkpt lat="46.29388" lon="-0.7189">
        <ele>2.1</ele>
        <time>2015-05-11T09:00:41.000Z</time>
      </trkpt>
      <trkpt lat="46.2939" lon="-0.7189">
        <ele>2.1</ele>
        <time>2015-05-11T09:00:43.000Z</time>
      </trkpt>
      <trkpt lat="46.29395" lon="-0.71887">
        <ele>2</ele>
        <time>2015-05-11T09:00:48.000Z</time>
      </trkpt>
      <trkpt lat="46.29401" lon="-0.7188">
        <ele>2</ele>
        <time>2015-05-11T09:00:55.000Z</time>
      </trkpt>
      <trkpt lat="46.29404" lon="-0.71874">
        <ele>2</ele>
        <time>2015-05-11T09:00:59.000Z</time>
      </trkpt>
      <trkpt lat="46.2941" lon="-0.7187">
        <ele>2</ele>
        <time>2015-05-11T09:01:04.000Z</time>
      </trkpt>
      <trkpt lat="46.29415" lon="-0.71866">
        <ele>2</ele>
        <time>2015-05-11T09:01:09.000Z</time>
      </trkpt>
      <trkpt lat="46.29417" lon="-0.71863">
        <ele>2</ele>
        <time>2015-05-11T09:01:11.000Z</time>
      </trkpt>
      <trkpt lat="46.29424" lon="-0.71858">
        <ele>2.3</ele>
        <time>2015-05-11T09:01:17.000Z</time>
      </trkpt>
      <trkpt lat="46.29431" lon="-0.71854">
        <ele>2.5</ele>
        <time>2015-05-11T09:01:22.000Z</time>
      </trkpt>
      <trkpt lat="46.29443" lon="-0.71845">
        <ele>3</ele>
        <time>2015-05-11T09:01:30.000Z</time>
      </trkpt>
      <trkpt lat="46.29456" lon="-0.71834">
        <ele>3</ele>
        <time>2015-05-11T09:01:39.000Z</time>
      </trkpt>
      <trkpt lat="46.29459" lon="-0.71828">
        <ele>3</ele>
        <time>2015-05-11T09:01:43.000Z</time>
      </trkpt>
      <trkpt lat="46.29462" lon="-0.71823">
        <ele>3</ele>
        <time>2015-05-11T09:01:47.000Z</time>
      </trkpt>
      <trkpt lat="46.29466" lon="-0.71819">
        <ele>3</ele>
        <time>2015-05-11T09:01:51.000Z</time>
      </trkpt>
      <trkpt lat="46.29476" lon="-0.71811">
        <ele>2.9</ele>
        <time>2015-05-11T09:01:59.000Z</time>
      </trkpt>
      <trkpt lat="46.29485" lon="-0.71801">
        <ele>2.5</ele>
        <time>2015-05-11T09:02:06.000Z</time>
      </trkpt>
      <trkpt lat="46.29491" lon="-0.71793">
        <ele>2.5</ele>
        <time>2015-05-11T09:02:12.000Z</time>
      </trkpt>
      <trkpt lat="46.295" lon="-0.71786">
        <ele>2.7</ele>
        <time>2015-05-11T09:02:18.000Z</time>
      </trkpt>
      <trkpt lat="46.29507" lon="-0.7178">
        <ele>2.7</ele>
        <time>2015-05-11T09:02:24.000Z</time>
      </trkpt>
      <trkpt lat="46.29515" lon="-0.71772">
        <ele>2.5</ele>
        <time>2015-05-11T09:02:30.000Z</time>
      </trkpt>
      <trkpt lat="46.29523" lon="-0.71763">
        <ele>2.5</ele>
        <time>2015-05-11T09:02:36.000Z</time>
      </trkpt>
      <trkpt lat="46.29531" lon="-0.71754">
        <ele>2.9</ele>
        <time>2015-05-11T09:02:43.000Z</time>
      </trkpt>
      <trkpt lat="46.29536" lon="-0.71748">
        <ele>3</ele>
        <time>2015-05-11T09:02:48.000Z</time>
      </trkpt>
      <trkpt lat="46.29544" lon="-0.7174">
        <ele>3</ele>
        <time>2015-05-11T09:02:54.000Z</time>
      </trkpt>
      <trkpt lat="46.29545" lon="-0.71738">
        <ele>3</ele>
        <time>2015-05-11T09:02:55.000Z</time>
      </trkpt>
      <trkpt lat="46.29556" lon="-0.71734">
        <ele>3</ele>
        <time>2015-05-11T09:03:03.000Z</time>
      </trkpt>
      <trkpt lat="46.29565" lon="-0.71726">
        <ele>2.7</ele>
        <time>2015-05-11T09:03:09.000Z</time>
      </trkpt>
      <trkpt lat="46.29572" lon="-0.7172">
        <ele>2.4</ele>
        <time>2015-05-11T09:03:14.000Z</time>
      </trkpt>
      <trkpt lat="46.29581" lon="-0.71713">
        <ele>2.4</ele>
        <time>2015-05-11T09:03:21.000Z</time>
      </trkpt>
      <trkpt lat="46.29591" lon="-0.71704">
        <ele>2.6</ele>
        <time>2015-05-11T09:03:29.000Z</time>
      </trkpt>
      <trkpt lat="46.29597" lon="-0.71699">
        <ele>2.9</ele>
        <time>2015-05-11T09:03:34.000Z</time>
      </trkpt>
      <trkpt lat="46.29598" lon="-0.71696">
        <ele>3</ele>
        <time>2015-05-11T09:03:36.000Z</time>
      </trkpt>
      <trkpt lat="46.29605" lon="-0.71689">
        <ele>3</ele>
        <time>2015-05-11T09:03:41.000Z</time>
      </trkpt>
      <trkpt lat="46.29607" lon="-0.71687">
        <ele>3</ele>
        <time>2015-05-11T09:03:43.000Z</time>
      </trkpt>
      <trkpt lat="46.29613" lon="-0.71679">
        <ele>2.9</ele>
        <time>2015-05-11T09:03:49.000Z</time>
      </trkpt>
      <trkpt lat="46.29615" lon="-0.71678">
        <ele>2.9</ele>
        <time>2015-05-11T09:03:50.000Z</time>
      </trkpt>
      <trkpt lat="46.29623" lon="-0.71668">
        <ele>2.6</ele>
        <time>2015-05-11T09:03:57.000Z</time>
      </trkpt>
      <trkpt lat="46.29631" lon="-0.71658">
        <ele>2.5</ele>
        <time>2015-05-11T09:04:03.000Z</time>
      </trkpt>
      <trkpt lat="46.29633" lon="-0.71655">
        <ele>2.5</ele>
        <time>2015-05-11T09:04:05.000Z</time>
      </trkpt>
      <trkpt lat="46.29641" lon="-0.71646">
        <ele>2.8</ele>
        <time>2015-05-11T09:04:11.000Z</time>
      </trkpt>
      <trkpt lat="46.29642" lon="-0.71644">
        <ele>2.8</ele>
        <time>2015-05-11T09:04:12.000Z</time>
      </trkpt>
      <trkpt lat="46.29649" lon="-0.71631">
        <ele>3</ele>
        <time>2015-05-11T09:04:19.000Z</time>
      </trkpt>
      <trkpt lat="46.29652" lon="-0.71625">
        <ele>3</ele>
        <time>2015-05-11T09:04:23.000Z</time>
      </trkpt>
      <trkpt lat="46.29657" lon="-0.71618">
        <ele>3</ele>
        <time>2015-05-11T09:04:28.000Z</time>
      </trkpt>
      <trkpt lat="46.29654" lon="-0.71609">
        <ele>3</ele>
        <time>2015-05-11T09:04:34.000Z</time>
      </trkpt>
      <trkpt lat="46.29653" lon="-0.71603">
        <ele>2.9</ele>
        <time>2015-05-11T09:04:41.000Z</time>
      </trkpt>
      <trkpt lat="46.29653" lon="-0.71598">
        <ele>2.8</ele>
        <time>2015-05-11T09:05:56.000Z</time>
      </trkpt>
      <trkpt lat="46.29654" lon="-0.71597">
        <ele>2.8</ele>
        <time>2015-05-11T09:06:12.000Z</time>
      </trkpt>
      <trkpt lat="46.29649" lon="-0.71597">
        <ele>2.7</ele>
        <time>2015-05-11T09:07:04.000Z</time>
      </trkpt>
      <trkpt lat="46.29651" lon="-0.71592">
        <ele>2.6</ele>
        <time>2015-05-11T09:07:58.000Z</time>
      </trkpt>
      <trkpt lat="46.29653" lon="-0.71588">
        <ele>2.6</ele>
        <time>2015-05-11T09:08:01.000Z</time>
      </trkpt>
      <trkpt lat="46.2966" lon="-0.7158">
        <ele>2.8</ele>
        <time>2015-05-11T09:08:09.000Z</time>
      </trkpt>
      <trkpt lat="46.29668" lon="-0.71571">
        <ele>3</ele>
        <time>2015-05-11T09:08:17.000Z</time>
      </trkpt>
      <trkpt lat="46.29671" lon="-0.71566">
        <ele>3</ele>
        <time>2015-05-11T09:08:20.000Z</time>
      </trkpt>
      <trkpt lat="46.29678" lon="-0.71555">
        <ele>3</ele>
        <time>2015-05-11T09:08:28.000Z</time>
      </trkpt>
      <trkpt lat="46.29685" lon="-0.71546">
        <ele>2.9</ele>
        <time>2015-05-11T09:08:35.000Z</time>
      </trkpt>
      <trkpt lat="46.29686" lon="-0.71545">
        <ele>2.9</ele>
        <time>2015-05-11T09:08:36.000Z</time>
      </trkpt>
      <trkpt lat="46.29692" lon="-0.71533">
        <ele>2.9</ele>
        <time>2015-05-11T09:08:43.000Z</time>
      </trkpt>
      <trkpt lat="46.29699" lon="-0.71523">
        <ele>2.9</ele>
        <time>2015-05-11T09:08:50.000Z</time>
      </trkpt>
      <trkpt lat="46.29703" lon="-0.71517">
        <ele>2.7</ele>
        <time>2015-05-11T09:08:54.000Z</time>
      </trkpt>
      <trkpt lat="46.29708" lon="-0.7151">
        <ele>2.7</ele>
        <time>2015-05-11T09:09:00.000Z</time>
      </trkpt>
      <trkpt lat="46.29708" lon="-0.71508">
        <ele>2.7</ele>
        <time>2015-05-11T09:09:01.000Z</time>
      </trkpt>
      <trkpt lat="46.29713" lon="-0.71499">
        <ele>2.7</ele>
        <time>2015-05-11T09:09:07.000Z</time>
      </trkpt>
      <trkpt lat="46.29714" lon="-0.71497">
        <ele>2.7</ele>
        <time>2015-05-11T09:09:08.000Z</time>
      </trkpt>
      <trkpt lat="46.29716" lon="-0.71494">
        <ele>2.6</ele>
        <time>2015-05-11T09:09:10.000Z</time>
      </trkpt>
      <trkpt lat="46.29723" lon="-0.71483">
        <ele>2.4</ele>
        <time>2015-05-11T09:09:17.000Z</time>
      </trkpt>
      <trkpt lat="46.29724" lon="-0.71482">
        <ele>2.4</ele>
        <time>2015-05-11T09:09:18.000Z</time>
      </trkpt>
      <trkpt lat="46.29728" lon="-0.71474">
        <ele>2.2</ele>
        <time>2015-05-11T09:09:24.000Z</time>
      </trkpt>
      <trkpt lat="46.2973" lon="-0.71471">
        <ele>2.3</ele>
        <time>2015-05-11T09:09:26.000Z</time>
      </trkpt>
      <trkpt lat="46.29737" lon="-0.71459">
        <ele>2.5</ele>
        <time>2015-05-11T09:09:33.000Z</time>
      </trkpt>
      <trkpt lat="46.2974" lon="-0.7145">
        <ele>2.6</ele>
        <time>2015-05-11T09:09:40.000Z</time>
      </trkpt>
      <trkpt lat="46.29746" lon="-0.71439">
        <ele>2.9</ele>
        <time>2015-05-11T09:09:47.000Z</time>
      </trkpt>
      <trkpt lat="46.29752" lon="-0.71431">
        <ele>3</ele>
        <time>2015-05-11T09:09:51.000Z</time>
      </trkpt>
      <trkpt lat="46.29758" lon="-0.71424">
        <ele>2.9</ele>
        <time>2015-05-11T09:09:55.000Z</time>
      </trkpt>
      <trkpt lat="46.29769" lon="-0.71413">
        <ele>3</ele>
        <time>2015-05-11T09:10:01.000Z</time>
      </trkpt>
      <trkpt lat="46.2977" lon="-0.71411">
        <ele>2.9</ele>
        <time>2015-05-11T09:10:02.000Z</time>
      </trkpt>
      <trkpt lat="46.29774" lon="-0.71405">
        <ele>2.9</ele>
        <time>2015-05-11T09:10:06.000Z</time>
      </trkpt>
      <trkpt lat="46.29776" lon="-0.71395">
        <ele>2.9</ele>
        <time>2015-05-11T09:10:12.000Z</time>
      </trkpt>
      <trkpt lat="46.29775" lon="-0.71393">
        <ele>2.9</ele>
        <time>2015-05-11T09:10:13.000Z</time>
      </trkpt>
      <trkpt lat="46.29775" lon="-0.71385">
        <ele>2.9</ele>
        <time>2015-05-11T09:10:18.000Z</time>
      </trkpt>
      <trkpt lat="46.29778" lon="-0.71382">
        <ele>3</ele>
        <time>2015-05-11T09:10:22.000Z</time>
      </trkpt>
      <trkpt lat="46.29785" lon="-0.7138">
        <ele>3</ele>
        <time>2015-05-11T09:10:29.000Z</time>
      </trkpt>
      <trkpt lat="46.29792" lon="-0.71377">
        <ele>3</ele>
        <time>2015-05-11T09:10:36.000Z</time>
      </trkpt>
      <trkpt lat="46.29799" lon="-0.71374">
        <ele>3</ele>
        <time>2015-05-11T09:10:41.000Z</time>
      </trkpt>
      <trkpt lat="46.29801" lon="-0.71371">
        <ele>3</ele>
        <time>2015-05-11T09:10:43.000Z</time>
      </trkpt>
      <trkpt lat="46.29809" lon="-0.71362">
        <ele>2.9</ele>
        <time>2015-05-11T09:10:50.000Z</time>
      </trkpt>
      <trkpt lat="46.29812" lon="-0.71358">
        <ele>2.7</ele>
        <time>2015-05-11T09:10:53.000Z</time>
      </trkpt>
      <trkpt lat="46.29815" lon="-0.71353">
        <ele>2.6</ele>
        <time>2015-05-11T09:11:00.000Z</time>
      </trkpt>
      <trkpt lat="46.29822" lon="-0.71343">
        <ele>2.5</ele>
        <time>2015-05-11T09:11:08.000Z</time>
      </trkpt>
      <trkpt lat="46.29826" lon="-0.71339">
        <ele>2.6</ele>
        <time>2015-05-11T09:11:12.000Z</time>
      </trkpt>
      <trkpt lat="46.2983" lon="-0.71334">
        <ele>2.9</ele>
        <time>2015-05-11T09:11:16.000Z</time>
      </trkpt>
      <trkpt lat="46.2984" lon="-0.71322">
        <ele>2.8</ele>
        <time>2015-05-11T09:11:25.000Z</time>
      </trkpt>
      <trkpt lat="46.29847" lon="-0.71314">
        <ele>2.8</ele>
        <time>2015-05-11T09:11:32.000Z</time>
      </trkpt>
      <trkpt lat="46.29851" lon="-0.71309">
        <ele>2.9</ele>
        <time>2015-05-11T09:11:36.000Z</time>
      </trkpt>
      <trkpt lat="46.29856" lon="-0.71302">
        <ele>3</ele>
        <time>2015-05-11T09:11:41.000Z</time>
      </trkpt>
      <trkpt lat="46.29864" lon="-0.71291">
        <ele>2.9</ele>
        <time>2015-05-11T09:11:50.000Z</time>
      </trkpt>
      <trkpt lat="46.29871" lon="-0.71283">
        <ele>2.9</ele>
        <time>2015-05-11T09:11:57.000Z</time>
      </trkpt>
      <trkpt lat="46.29878" lon="-0.71275">
        <ele>3</ele>
        <time>2015-05-11T09:12:04.000Z</time>
      </trkpt>
      <trkpt lat="46.29885" lon="-0.71266">
        <ele>2.9</ele>
        <time>2015-05-11T09:12:11.000Z</time>
      </trkpt>
      <trkpt lat="46.29896" lon="-0.71254">
        <ele>3</ele>
        <time>2015-05-11T09:12:20.000Z</time>
      </trkpt>
      <trkpt lat="46.29903" lon="-0.71242">
        <ele>2.9</ele>
        <time>2015-05-11T09:12:29.000Z</time>
      </trkpt>
      <trkpt lat="46.29904" lon="-0.71241">
        <ele>2.9</ele>
        <time>2015-05-11T09:12:30.000Z</time>
      </trkpt>
      <trkpt lat="46.29912" lon="-0.71219">
        <ele>2.9</ele>
        <time>2015-05-11T09:12:44.000Z</time>
      </trkpt>
      <trkpt lat="46.29916" lon="-0.71205">
        <ele>3</ele>
        <time>2015-05-11T09:12:51.000Z</time>
      </trkpt>
      <trkpt lat="46.29917" lon="-0.71203">
        <ele>3</ele>
        <time>2015-05-11T09:12:52.000Z</time>
      </trkpt>
      <trkpt lat="46.29919" lon="-0.71194">
        <ele>2.9</ele>
        <time>2015-05-11T09:12:57.000Z</time>
      </trkpt>
      <trkpt lat="46.2992" lon="-0.71189">
        <ele>2.9</ele>
        <time>2015-05-11T09:12:59.000Z</time>
      </trkpt>
      <trkpt lat="46.29922" lon="-0.71172">
        <ele>2.8</ele>
        <time>2015-05-11T09:13:07.000Z</time>
      </trkpt>
      <trkpt lat="46.29924" lon="-0.71153">
        <ele>2.7</ele>
        <time>2015-05-11T09:13:16.000Z</time>
      </trkpt>
      <trkpt lat="46.29925" lon="-0.71139">
        <ele>2.7</ele>
        <time>2015-05-11T09:13:23.000Z</time>
      </trkpt>
      <trkpt lat="46.29929" lon="-0.71104">
        <ele>3</ele>
        <time>2015-05-11T09:13:41.000Z</time>
      </trkpt>
      <trkpt lat="46.29932" lon="-0.71082">
        <ele>3</ele>
        <time>2015-05-11T09:13:50.000Z</time>
      </trkpt>
      <trkpt lat="46.29934" lon="-0.71069">
        <ele>3</ele>
        <time>2015-05-11T09:13:56.000Z</time>
      </trkpt>
      <trkpt lat="46.29934" lon="-0.71054">
        <ele>3</ele>
        <time>2015-05-11T09:14:03.000Z</time>
      </trkpt>
      <trkpt lat="46.29934" lon="-0.71049">
        <ele>3</ele>
        <time>2015-05-11T09:14:05.000Z</time>
      </trkpt>
      <trkpt lat="46.29935" lon="-0.71038">
        <ele>3</ele>
        <time>2015-05-11T09:14:10.000Z</time>
      </trkpt>
      <trkpt lat="46.29935" lon="-0.71032">
        <ele>3</ele>
        <time>2015-05-11T09:14:13.000Z</time>
      </trkpt>
      <trkpt lat="46.29933" lon="-0.71025">
        <ele>3</ele>
        <time>2015-05-11T09:14:16.000Z</time>
      </trkpt>
      <trkpt lat="46.29934" lon="-0.71014">
        <ele>3</ele>
        <time>2015-05-11T09:14:21.000Z</time>
      </trkpt>
      <trkpt lat="46.29933" lon="-0.71011">
        <ele>3</ele>
        <time>2015-05-11T09:14:22.000Z</time>
      </trkpt>
      <trkpt lat="46.29932" lon="-0.70999">
        <ele>3</ele>
        <time>2015-05-11T09:14:28.000Z</time>
      </trkpt>
      <trkpt lat="46.2993" lon="-0.70993">
        <ele>3</ele>
        <time>2015-05-11T09:14:31.000Z</time>
      </trkpt>
      <trkpt lat="46.2993" lon="-0.70982">
        <ele>3</ele>
        <time>2015-05-11T09:14:36.000Z</time>
      </trkpt>
      <trkpt lat="46.29929" lon="-0.70964">
        <ele>3</ele>
        <time>2015-05-11T09:14:44.000Z</time>
      </trkpt>
      <trkpt lat="46.29926" lon="-0.70949">
        <ele>3</ele>
        <time>2015-05-11T09:14:50.000Z</time>
      </trkpt>
      <trkpt lat="46.29924" lon="-0.70934">
        <ele>3</ele>
        <time>2015-05-11T09:14:56.000Z</time>
      </trkpt>
      <trkpt lat="46.29922" lon="-0.70918">
        <ele>3</ele>
        <time>2015-05-11T09:15:03.000Z</time>
      </trkpt>
      <trkpt lat="46.29918" lon="-0.70899">
        <ele>3</ele>
        <time>2015-05-11T09:15:12.000Z</time>
      </trkpt>
      <trkpt lat="46.29913" lon="-0.70882">
        <ele>2.8</ele>
        <time>2015-05-11T09:15:21.000Z</time>
      </trkpt>
      <trkpt lat="46.29907" lon="-0.70866">
        <ele>2.5</ele>
        <time>2015-05-11T09:15:29.000Z</time>
      </trkpt>
      <trkpt lat="46.299" lon="-0.70851">
        <ele>2.7</ele>
        <time>2015-05-11T09:15:37.000Z</time>
      </trkpt>
      <trkpt lat="46.29896" lon="-0.7084">
        <ele>2.9</ele>
        <time>2015-05-11T09:15:42.000Z</time>
      </trkpt>
      <trkpt lat="46.2989" lon="-0.70824">
        <ele>3</ele>
        <time>2015-05-11T09:15:50.000Z</time>
      </trkpt>
      <trkpt lat="46.29884" lon="-0.70808">
        <ele>3</ele>
        <time>2015-05-11T09:15:58.000Z</time>
      </trkpt>
      <trkpt lat="46.29879" lon="-0.70797">
        <ele>3.1</ele>
        <time>2015-05-11T09:16:04.000Z</time>
      </trkpt>
      <trkpt lat="46.29877" lon="-0.70793">
        <ele>3.2</ele>
        <time>2015-05-11T09:16:06.000Z</time>
      </trkpt>
      <trkpt lat="46.29874" lon="-0.70784">
        <ele>3.4</ele>
        <time>2015-05-11T09:16:12.000Z</time>
      </trkpt>
      <trkpt lat="46.29868" lon="-0.70767">
        <ele>3.5</ele>
        <time>2015-05-11T09:16:20.000Z</time>
      </trkpt>
      <trkpt lat="46.29865" lon="-0.7075">
        <ele>3</ele>
        <time>2015-05-11T09:16:27.000Z</time>
      </trkpt>
      <trkpt lat="46.29862" lon="-0.70735">
        <ele>3</ele>
        <time>2015-05-11T09:16:34.000Z</time>
      </trkpt>
      <trkpt lat="46.29861" lon="-0.70723">
        <ele>3</ele>
        <time>2015-05-11T09:16:41.000Z</time>
      </trkpt>
      <trkpt lat="46.29861" lon="-0.70708">
        <ele>3</ele>
        <time>2015-05-11T09:16:47.000Z</time>
      </trkpt>
      <trkpt lat="46.29866" lon="-0.70697">
        <ele>3</ele>
        <time>2015-05-11T09:16:54.000Z</time>
      </trkpt>
      <trkpt lat="46.29871" lon="-0.70689">
        <ele>2.9</ele>
        <time>2015-05-11T09:17:00.000Z</time>
      </trkpt>
      <trkpt lat="46.29878" lon="-0.7068">
        <ele>2.8</ele>
        <time>2015-05-11T09:17:07.000Z</time>
      </trkpt>
      <trkpt lat="46.29885" lon="-0.70673">
        <ele>2.9</ele>
        <time>2015-05-11T09:17:14.000Z</time>
      </trkpt>
      <trkpt lat="46.29886" lon="-0.70672">
        <ele>2.9</ele>
        <time>2015-05-11T09:17:15.000Z</time>
      </trkpt>
      <trkpt lat="46.29891" lon="-0.70666">
        <ele>2.9</ele>
        <time>2015-05-11T09:17:20.000Z</time>
      </trkpt>
      <trkpt lat="46.29899" lon="-0.70659">
        <ele>2.6</ele>
        <time>2015-05-11T09:17:26.000Z</time>
      </trkpt>
      <trkpt lat="46.29899" lon="-0.70658">
        <ele>2.6</ele>
        <time>2015-05-11T09:17:27.000Z</time>
      </trkpt>
      <trkpt lat="46.29906" lon="-0.7065">
        <ele>2.5</ele>
        <time>2015-05-11T09:17:32.000Z</time>
      </trkpt>
      <trkpt lat="46.29908" lon="-0.70647">
        <ele>2.6</ele>
        <time>2015-05-11T09:17:35.000Z</time>
      </trkpt>
      <trkpt lat="46.29916" lon="-0.70639">
        <ele>3</ele>
        <time>2015-05-11T09:17:41.000Z</time>
      </trkpt>
      <trkpt lat="46.29924" lon="-0.70632">
        <ele>2.8</ele>
        <time>2015-05-11T09:17:46.000Z</time>
      </trkpt>
      <trkpt lat="46.29925" lon="-0.70631">
        <ele>2.8</ele>
        <time>2015-05-11T09:17:47.000Z</time>
      </trkpt>
      <trkpt lat="46.29935" lon="-0.70625">
        <ele>2.8</ele>
        <time>2015-05-11T09:17:53.000Z</time>
      </trkpt>
      <trkpt lat="46.29944" lon="-0.70618">
        <ele>3</ele>
        <time>2015-05-11T09:18:00.000Z</time>
      </trkpt>
      <trkpt lat="46.29951" lon="-0.7061">
        <ele>2.8</ele>
        <time>2015-05-11T09:18:06.000Z</time>
      </trkpt>
      <trkpt lat="46.29957" lon="-0.70599">
        <ele>2.5</ele>
        <time>2015-05-11T09:18:11.000Z</time>
      </trkpt>
      <trkpt lat="46.29958" lon="-0.70598">
        <ele>2.5</ele>
        <time>2015-05-11T09:18:12.000Z</time>
      </trkpt>
      <trkpt lat="46.29962" lon="-0.70584">
        <ele>2.6</ele>
        <time>2015-05-11T09:18:18.000Z</time>
      </trkpt>
      <trkpt lat="46.29962" lon="-0.70582">
        <ele>2.6</ele>
        <time>2015-05-11T09:18:19.000Z</time>
      </trkpt>
      <trkpt lat="46.29963" lon="-0.70575">
        <ele>2.7</ele>
        <time>2015-05-11T09:18:22.000Z</time>
      </trkpt>
      <trkpt lat="46.29961" lon="-0.70558">
        <ele>2.6</ele>
        <time>2015-05-11T09:18:31.000Z</time>
      </trkpt>
      <trkpt lat="46.29955" lon="-0.70546">
        <ele>2.6</ele>
        <time>2015-05-11T09:18:37.000Z</time>
      </trkpt>
      <trkpt lat="46.29955" lon="-0.70545">
        <ele>2.6</ele>
        <time>2015-05-11T09:18:39.000Z</time>
      </trkpt>
      <trkpt lat="46.29953" lon="-0.70541">
        <ele>2.7</ele>
        <time>2015-05-11T09:18:40.000Z</time>
      </trkpt>
      <trkpt lat="46.29952" lon="-0.70533">
        <ele>2.9</ele>
        <time>2015-05-11T09:18:45.000Z</time>
      </trkpt>
      <trkpt lat="46.29945" lon="-0.70517">
        <ele>3</ele>
        <time>2015-05-11T09:18:54.000Z</time>
      </trkpt>
      <trkpt lat="46.29935" lon="-0.70496">
        <ele>3</ele>
        <time>2015-05-11T09:19:05.000Z</time>
      </trkpt>
      <trkpt lat="46.29927" lon="-0.70483">
        <ele>3</ele>
        <time>2015-05-11T09:19:12.000Z</time>
      </trkpt>
      <trkpt lat="46.29919" lon="-0.70465">
        <ele>3</ele>
        <time>2015-05-11T09:19:21.000Z</time>
      </trkpt>
      <trkpt lat="46.29913" lon="-0.70451">
        <ele>3</ele>
        <time>2015-05-11T09:19:27.000Z</time>
      </trkpt>
      <trkpt lat="46.29908" lon="-0.7044">
        <ele>3</ele>
        <time>2015-05-11T09:19:33.000Z</time>
      </trkpt>
      <trkpt lat="46.29903" lon="-0.70424">
        <ele>3</ele>
        <time>2015-05-11T09:19:42.000Z</time>
      </trkpt>
      <trkpt lat="46.29903" lon="-0.7041">
        <ele>2.9</ele>
        <time>2015-05-11T09:19:47.000Z</time>
      </trkpt>
      <trkpt lat="46.29904" lon="-0.70395">
        <ele>2.6</ele>
        <time>2015-05-11T09:19:54.000Z</time>
      </trkpt>
      <trkpt lat="46.29905" lon="-0.70391">
        <ele>2.5</ele>
        <time>2015-05-11T09:19:56.000Z</time>
      </trkpt>
      <trkpt lat="46.29905" lon="-0.70377">
        <ele>2.5</ele>
        <time>2015-05-11T09:20:02.000Z</time>
      </trkpt>
      <trkpt lat="46.29906" lon="-0.70359">
        <ele>2.6</ele>
        <time>2015-05-11T09:20:09.000Z</time>
      </trkpt>
      <trkpt lat="46.29908" lon="-0.70341">
        <ele>2.9</ele>
        <time>2015-05-11T09:20:17.000Z</time>
      </trkpt>
      <trkpt lat="46.2991" lon="-0.70325">
        <ele>3</ele>
        <time>2015-05-11T09:20:25.000Z</time>
      </trkpt>
      <trkpt lat="46.29908" lon="-0.70308">
        <ele>3</ele>
        <time>2015-05-11T09:20:32.000Z</time>
      </trkpt>
      <trkpt lat="46.29909" lon="-0.70293">
        <ele>3</ele>
        <time>2015-05-11T09:20:39.000Z</time>
      </trkpt>
      <trkpt lat="46.29909" lon="-0.70273">
        <ele>3</ele>
        <time>2015-05-11T09:20:49.000Z</time>
      </trkpt>
      <trkpt lat="46.29907" lon="-0.70251">
        <ele>3</ele>
        <time>2015-05-11T09:20:59.000Z</time>
      </trkpt>
      <trkpt lat="46.29906" lon="-0.70236">
        <ele>3</ele>
        <time>2015-05-11T09:21:06.000Z</time>
      </trkpt>
      <trkpt lat="46.29905" lon="-0.70226">
        <ele>3</ele>
        <time>2015-05-11T09:21:12.000Z</time>
      </trkpt>
      <trkpt lat="46.29905" lon="-0.70217">
        <ele>3</ele>
        <time>2015-05-11T09:21:19.000Z</time>
      </trkpt>
      <trkpt lat="46.29905" lon="-0.70193">
        <ele>3</ele>
        <time>2015-05-11T09:21:30.000Z</time>
      </trkpt>
      <trkpt lat="46.29904" lon="-0.70178">
        <ele>3</ele>
        <time>2015-05-11T09:21:37.000Z</time>
      </trkpt>
      <trkpt lat="46.29905" lon="-0.70163">
        <ele>3</ele>
        <time>2015-05-11T09:21:45.000Z</time>
      </trkpt>
      <trkpt lat="46.29905" lon="-0.70158">
        <ele>3</ele>
        <time>2015-05-11T09:21:47.000Z</time>
      </trkpt>
      <trkpt lat="46.29909" lon="-0.70141">
        <ele>3</ele>
        <time>2015-05-11T09:21:56.000Z</time>
      </trkpt>
      <trkpt lat="46.29912" lon="-0.70123">
        <ele>2.9</ele>
        <time>2015-05-11T09:22:05.000Z</time>
      </trkpt>
      <trkpt lat="46.29916" lon="-0.7011">
        <ele>2.9</ele>
        <time>2015-05-11T09:22:11.000Z</time>
      </trkpt>
      <trkpt lat="46.2992" lon="-0.70094">
        <ele>2.4</ele>
        <time>2015-05-11T09:22:19.000Z</time>
      </trkpt>
      <trkpt lat="46.29921" lon="-0.70088">
        <ele>2.3</ele>
        <time>2015-05-11T09:22:21.000Z</time>
      </trkpt>
      <trkpt lat="46.29924" lon="-0.7007">
        <ele>2.6</ele>
        <time>2015-05-11T09:22:31.000Z</time>
      </trkpt>
      <trkpt lat="46.29925" lon="-0.70056">
        <ele>3</ele>
        <time>2015-05-11T09:22:38.000Z</time>
      </trkpt>
      <trkpt lat="46.29932" lon="-0.70034">
        <ele>2.7</ele>
        <time>2015-05-11T09:22:49.000Z</time>
      </trkpt>
      <trkpt lat="46.29933" lon="-0.70033">
        <ele>2.7</ele>
        <time>2015-05-11T09:22:50.000Z</time>
      </trkpt>
      <trkpt lat="46.29941" lon="-0.70023">
        <ele>2.9</ele>
        <time>2015-05-11T09:22:57.000Z</time>
      </trkpt>
      <trkpt lat="46.29948" lon="-0.70018">
        <ele>3</ele>
        <time>2015-05-11T09:23:02.000Z</time>
      </trkpt>
      <trkpt lat="46.29956" lon="-0.70011">
        <ele>3</ele>
        <time>2015-05-11T09:23:10.000Z</time>
      </trkpt>
      <trkpt lat="46.29966" lon="-0.70004">
        <ele>3</ele>
        <time>2015-05-11T09:23:18.000Z</time>
      </trkpt>
      <trkpt lat="46.29976" lon="-0.69993">
        <ele>3</ele>
        <time>2015-05-11T09:23:26.000Z</time>
      </trkpt>
      <trkpt lat="46.29987" lon="-0.69983">
        <ele>3</ele>
        <time>2015-05-11T09:23:36.000Z</time>
      </trkpt>
      <trkpt lat="46.29998" lon="-0.69972">
        <ele>3</ele>
        <time>2015-05-11T09:23:45.000Z</time>
      </trkpt>
      <trkpt lat="46.30005" lon="-0.69964">
        <ele>3</ele>
        <time>2015-05-11T09:23:51.000Z</time>
      </trkpt>
      <trkpt lat="46.30017" lon="-0.69953">
        <ele>3</ele>
        <time>2015-05-11T09:24:00.000Z</time>
      </trkpt>
      <trkpt lat="46.30027" lon="-0.69945">
        <ele>3</ele>
        <time>2015-05-11T09:24:07.000Z</time>
      </trkpt>
      <trkpt lat="46.30037" lon="-0.69935">
        <ele>3</ele>
        <time>2015-05-11T09:24:15.000Z</time>
      </trkpt>
      <trkpt lat="46.30045" lon="-0.69929">
        <ele>3</ele>
        <time>2015-05-11T09:24:22.000Z</time>
      </trkpt>
      <trkpt lat="46.30054" lon="-0.69921">
        <ele>3</ele>
        <time>2015-05-11T09:24:30.000Z</time>
      </trkpt>
      <trkpt lat="46.30061" lon="-0.69913">
        <ele>3</ele>
        <time>2015-05-11T09:24:36.000Z</time>
      </trkpt>
      <trkpt lat="46.30071" lon="-0.69905">
        <ele>3</ele>
        <time>2015-05-11T09:24:42.000Z</time>
      </trkpt>
      <trkpt lat="46.30082" lon="-0.69894">
        <ele>3</ele>
        <time>2015-05-11T09:24:51.000Z</time>
      </trkpt>
      <trkpt lat="46.30088" lon="-0.69886">
        <ele>3.2</ele>
        <time>2015-05-11T09:24:59.000Z</time>
      </trkpt>
      <trkpt lat="46.3009" lon="-0.69881">
        <ele>3.4</ele>
        <time>2015-05-11T09:25:03.000Z</time>
      </trkpt>
      <trkpt lat="46.30093" lon="-0.69873">
        <ele>3.5</ele>
        <time>2015-05-11T09:25:09.000Z</time>
      </trkpt>
      <trkpt lat="46.30091" lon="-0.69867">
        <ele>3.6</ele>
        <time>2015-05-11T09:25:15.000Z</time>
      </trkpt>
      <trkpt lat="46.3009" lon="-0.69864">
        <ele>3.7</ele>
        <time>2015-05-11T09:25:17.000Z</time>
      </trkpt>
      <trkpt lat="46.30084" lon="-0.69851">
        <ele>3.6</ele>
        <time>2015-05-11T09:25:27.000Z</time>
      </trkpt>
      <trkpt lat="46.3008" lon="-0.69843">
        <ele>3.3</ele>
        <time>2015-05-11T09:25:32.000Z</time>
      </trkpt>
      <trkpt lat="46.30073" lon="-0.6983">
        <ele>3</ele>
        <time>2015-05-11T09:25:42.000Z</time>
      </trkpt>
      <trkpt lat="46.3007" lon="-0.69825">
        <ele>3.1</ele>
        <time>2015-05-11T09:25:46.000Z</time>
      </trkpt>
      <trkpt lat="46.30069" lon="-0.69823">
        <ele>3.2</ele>
        <time>2015-05-11T09:25:53.000Z</time>
      </trkpt>
      <trkpt lat="46.30066" lon="-0.6982">
        <ele>3.3</ele>
        <time>2015-05-11T09:26:06.000Z</time>
      </trkpt>
      <trkpt lat="46.30066" lon="-0.69815">
        <ele>3.4</ele>
        <time>2015-05-11T09:26:14.000Z</time>
      </trkpt>
      <trkpt lat="46.30062" lon="-0.69808">
        <ele>3.7</ele>
        <time>2015-05-11T09:26:20.000Z</time>
      </trkpt>
      <trkpt lat="46.30057" lon="-0.69798">
        <ele>3.7</ele>
        <time>2015-05-11T09:26:27.000Z</time>
      </trkpt>
      <trkpt lat="46.30054" lon="-0.69795">
        <ele>3.6</ele>
        <time>2015-05-11T09:26:32.000Z</time>
      </trkpt>
      <trkpt lat="46.30053" lon="-0.69792">
        <ele>3.5</ele>
        <time>2015-05-11T09:26:35.000Z</time>
      </trkpt>
      <trkpt lat="46.30047" lon="-0.69781">
        <ele>3.3</ele>
        <time>2015-05-11T09:26:44.000Z</time>
      </trkpt>
      <trkpt lat="46.30046" lon="-0.69778">
        <ele>3.4</ele>
        <time>2015-05-11T09:26:46.000Z</time>
      </trkpt>
      <trkpt lat="46.3004" lon="-0.69768">
        <ele>3.5</ele>
        <time>2015-05-11T09:26:53.000Z</time>
      </trkpt>
      <trkpt lat="46.30034" lon="-0.69757">
        <ele>3.8</ele>
        <time>2015-05-11T09:27:01.000Z</time>
      </trkpt>
      <trkpt lat="46.3003" lon="-0.6975">
        <ele>3.9</ele>
        <time>2015-05-11T09:27:07.000Z</time>
      </trkpt>
      <trkpt lat="46.30025" lon="-0.69741">
        <ele>3.6</ele>
        <time>2015-05-11T09:27:14.000Z</time>
      </trkpt>
      <trkpt lat="46.30017" lon="-0.69729">
        <ele>3.4</ele>
        <time>2015-05-11T09:27:23.000Z</time>
      </trkpt>
      <trkpt lat="46.30016" lon="-0.69727">
        <ele>3.4</ele>
        <time>2015-05-11T09:27:25.000Z</time>
      </trkpt>
      <trkpt lat="46.3001" lon="-0.69715">
        <ele>3.5</ele>
        <time>2015-05-11T09:27:33.000Z</time>
      </trkpt>
      <trkpt lat="46.30004" lon="-0.69704">
        <ele>3.3</ele>
        <time>2015-05-11T09:27:41.000Z</time>
      </trkpt>
      <trkpt lat="46.29998" lon="-0.69695">
        <ele>3</ele>
        <time>2015-05-11T09:27:48.000Z</time>
      </trkpt>
      <trkpt lat="46.29993" lon="-0.69685">
        <ele>3.1</ele>
        <time>2015-05-11T09:27:55.000Z</time>
      </trkpt>
      <trkpt lat="46.29985" lon="-0.69671">
        <ele>3.4</ele>
        <time>2015-05-11T09:28:04.000Z</time>
      </trkpt>
      <trkpt lat="46.29979" lon="-0.69662">
        <ele>3.6</ele>
        <time>2015-05-11T09:28:11.000Z</time>
      </trkpt>
      <trkpt lat="46.29972" lon="-0.69647">
        <ele>3.3</ele>
        <time>2015-05-11T09:28:20.000Z</time>
      </trkpt>
      <trkpt lat="46.29966" lon="-0.69638">
        <ele>3</ele>
        <time>2015-05-11T09:28:26.000Z</time>
      </trkpt>
      <trkpt lat="46.29964" lon="-0.69633">
        <ele>3.1</ele>
        <time>2015-05-11T09:28:29.000Z</time>
      </trkpt>
      <trkpt lat="46.2996" lon="-0.69628">
        <ele>3.2</ele>
        <time>2015-05-11T09:28:32.000Z</time>
      </trkpt>
      <trkpt lat="46.29954" lon="-0.69618">
        <ele>3.5</ele>
        <time>2015-05-11T09:28:40.000Z</time>
      </trkpt>
      <trkpt lat="46.29948" lon="-0.69606">
        <ele>3.7</ele>
        <time>2015-05-11T09:28:47.000Z</time>
      </trkpt>
      <trkpt lat="46.29948" lon="-0.69605">
        <ele>3.7</ele>
        <time>2015-05-11T09:28:48.000Z</time>
      </trkpt>
      <trkpt lat="46.29942" lon="-0.69594">
        <ele>3.4</ele>
        <time>2015-05-11T09:28:55.000Z</time>
      </trkpt>
      <trkpt lat="46.29937" lon="-0.69584">
        <ele>3.3</ele>
        <time>2015-05-11T09:29:02.000Z</time>
      </trkpt>
      <trkpt lat="46.29931" lon="-0.69574">
        <ele>3.5</ele>
        <time>2015-05-11T09:29:09.000Z</time>
      </trkpt>
      <trkpt lat="46.29925" lon="-0.69563">
        <ele>3.7</ele>
        <time>2015-05-11T09:29:16.000Z</time>
      </trkpt>
      <trkpt lat="46.2992" lon="-0.69553">
        <ele>3.8</ele>
        <time>2015-05-11T09:29:23.000Z</time>
      </trkpt>
      <trkpt lat="46.29914" lon="-0.69543">
        <ele>3.5</ele>
        <time>2015-05-11T09:29:29.000Z</time>
      </trkpt>
      <trkpt lat="46.29908" lon="-0.69533">
        <ele>3.4</ele>
        <time>2015-05-11T09:29:36.000Z</time>
      </trkpt>
      <trkpt lat="46.29902" lon="-0.69521">
        <ele>3.5</ele>
        <time>2015-05-11T09:29:43.000Z</time>
      </trkpt>
      <trkpt lat="46.29892" lon="-0.69499">
        <ele>3.9</ele>
        <time>2015-05-11T09:29:55.000Z</time>
      </trkpt>
      <trkpt lat="46.29883" lon="-0.69482">
        <ele>3.4</ele>
        <time>2015-05-11T09:30:05.000Z</time>
      </trkpt>
      <trkpt lat="46.29879" lon="-0.69476">
        <ele>3.4</ele>
        <time>2015-05-11T09:30:09.000Z</time>
      </trkpt>
      <trkpt lat="46.29871" lon="-0.69483">
        <ele>3.5</ele>
        <time>2015-05-11T09:30:16.000Z</time>
      </trkpt>
      <trkpt lat="46.29871" lon="-0.69493">
        <ele>3.4</ele>
        <time>2015-05-11T09:30:22.000Z</time>
      </trkpt>
      <trkpt lat="46.29865" lon="-0.69502">
        <ele>3.1</ele>
        <time>2015-05-11T09:30:30.000Z</time>
      </trkpt>
    </trkseg>
  </trk>
</gpx>